<?xml version="1.0" encoding="UTF-8" standalone="no" ?>
<gpx xmlns="http://www.topografix.com/GPX/1/1" xmlns:xsi="http://www.w3.org/2001/XMLSchema-instance" xsi:schemaLocation="http://www.topografix.com/GPX/1/1 http://www.topografix.com/GPX/1/1/gpx.xsd" version="1.1" creator="VisuGPX - https://www.visugpx.com">
  <metadata>
    <name>Autour de St Jorioz</name>
    <desc><![CDATA[Balade entre lac et montagne]]></desc>
  </metadata>
  <trk>
    <name><![CDATA[Autour de St Jorioz deplacement]]></name>
    <trkseg>
      <trkpt lat="45.82555" lon="6.15138">
        <ele>489.448364</ele>
        <time>2011-01-14T15:12:22Z</time>
      </trkpt>
      <trkpt lat="45.82557" lon="6.15142">
        <ele>489.929077</ele>
        <time>2011-01-14T15:12:29Z</time>
      </trkpt>
      <trkpt lat="45.82563" lon="6.15136">
        <ele>489.929077</ele>
        <time>2011-01-14T15:12:37Z</time>
      </trkpt>
      <trkpt lat="45.82571" lon="6.15122">
        <ele>490.40979</ele>
        <time>2011-01-14T15:12:48Z</time>
      </trkpt>
      <trkpt lat="45.82572" lon="6.15117">
        <ele>490.40979</ele>
        <time>2011-01-14T15:12:52Z</time>
      </trkpt>
      <trkpt lat="45.82563" lon="6.15102">
        <ele>490.40979</ele>
        <time>2011-01-14T15:13:04Z</time>
      </trkpt>
      <trkpt lat="45.82551" lon="6.15088">
        <ele>490.890381</ele>
        <time>2011-01-14T15:13:17Z</time>
      </trkpt>
      <trkpt lat="45.82538" lon="6.15074">
        <ele>491.851685</ele>
        <time>2011-01-14T15:13:30Z</time>
      </trkpt>
      <trkpt lat="45.82522" lon="6.15059">
        <ele>492.332397</ele>
        <time>2011-01-14T15:13:44Z</time>
      </trkpt>
      <trkpt lat="45.82505" lon="6.15045">
        <ele>493.774292</ele>
        <time>2011-01-14T15:13:57Z</time>
      </trkpt>
      <trkpt lat="45.82488" lon="6.15029">
        <ele>493.774292</ele>
        <time>2011-01-14T15:14:12Z</time>
      </trkpt>
      <trkpt lat="45.8247" lon="6.15007">
        <ele>494.255005</ele>
        <time>2011-01-14T15:14:28Z</time>
      </trkpt>
      <trkpt lat="45.82451" lon="6.14985">
        <ele>495.216187</ele>
        <time>2011-01-14T15:14:45Z</time>
      </trkpt>
      <trkpt lat="45.82434" lon="6.14974">
        <ele>495.696899</ele>
        <time>2011-01-14T15:14:57Z</time>
      </trkpt>
      <trkpt lat="45.82415" lon="6.14962">
        <ele>496.658325</ele>
        <time>2011-01-14T15:15:11Z</time>
      </trkpt>
      <trkpt lat="45.82402" lon="6.14948">
        <ele>497.138916</ele>
        <time>2011-01-14T15:15:22Z</time>
      </trkpt>
      <trkpt lat="45.8239" lon="6.14925">
        <ele>498.580933</ele>
        <time>2011-01-14T15:15:36Z</time>
      </trkpt>
      <trkpt lat="45.82382" lon="6.14903">
        <ele>499.061523</ele>
        <time>2011-01-14T15:15:48Z</time>
      </trkpt>
      <trkpt lat="45.82376" lon="6.14879">
        <ele>499.542236</ele>
        <time>2011-01-14T15:15:59Z</time>
      </trkpt>
      <trkpt lat="45.82371" lon="6.14852">
        <ele>501.464844</ele>
        <time>2011-01-14T15:16:12Z</time>
      </trkpt>
      <trkpt lat="45.82364" lon="6.14826">
        <ele>502.426147</ele>
        <time>2011-01-14T15:16:25Z</time>
      </trkpt>
      <trkpt lat="45.8236" lon="6.14809">
        <ele>503.387451</ele>
        <time>2011-01-14T15:16:34Z</time>
      </trkpt>
      <trkpt lat="45.82358" lon="6.14793">
        <ele>503.868164</ele>
        <time>2011-01-14T15:16:42Z</time>
      </trkpt>
      <trkpt lat="45.82354" lon="6.14775">
        <ele>505.790894</ele>
        <time>2011-01-14T15:16:51Z</time>
      </trkpt>
      <trkpt lat="45.82351" lon="6.14771">
        <ele>505.790894</ele>
        <time>2011-01-14T15:16:54Z</time>
      </trkpt>
      <trkpt lat="45.82344" lon="6.14754">
        <ele>506.271484</ele>
        <time>2011-01-14T15:17:02Z</time>
      </trkpt>
      <trkpt lat="45.82334" lon="6.14726">
        <ele>507.713501</ele>
        <time>2011-01-14T15:17:14Z</time>
      </trkpt>
      <trkpt lat="45.82326" lon="6.14706">
        <ele>509.155396</ele>
        <time>2011-01-14T15:17:25Z</time>
      </trkpt>
      <trkpt lat="45.82319" lon="6.14689">
        <ele>510.116699</ele>
        <time>2011-01-14T15:17:35Z</time>
      </trkpt>
      <trkpt lat="45.82311" lon="6.14671">
        <ele>511.558716</ele>
        <time>2011-01-14T15:17:45Z</time>
      </trkpt>
      <trkpt lat="45.823" lon="6.14654">
        <ele>512.52002</ele>
        <time>2011-01-14T15:17:56Z</time>
      </trkpt>
      <trkpt lat="45.82293" lon="6.14642">
        <ele>513.481445</ele>
        <time>2011-01-14T15:18:04Z</time>
      </trkpt>
      <trkpt lat="45.82286" lon="6.14629">
        <ele>514.442627</ele>
        <time>2011-01-14T15:18:12Z</time>
      </trkpt>
      <trkpt lat="45.82284" lon="6.14624">
        <ele>514.442627</ele>
        <time>2011-01-14T15:18:15Z</time>
      </trkpt>
      <trkpt lat="45.82276" lon="6.14618">
        <ele>515.404053</ele>
        <time>2011-01-14T15:18:21Z</time>
      </trkpt>
      <trkpt lat="45.82274" lon="6.14601">
        <ele>515.884644</ele>
        <time>2011-01-14T15:18:28Z</time>
      </trkpt>
      <trkpt lat="45.82266" lon="6.14587">
        <ele>517.32666</ele>
        <time>2011-01-14T15:18:36Z</time>
      </trkpt>
      <trkpt lat="45.8226" lon="6.14576">
        <ele>517.807251</ele>
        <time>2011-01-14T15:18:42Z</time>
      </trkpt>
      <trkpt lat="45.82251" lon="6.1456">
        <ele>519.729858</ele>
        <time>2011-01-14T15:18:52Z</time>
      </trkpt>
      <trkpt lat="45.82248" lon="6.14542">
        <ele>522.133179</ele>
        <time>2011-01-14T15:19:00Z</time>
      </trkpt>
      <trkpt lat="45.82245" lon="6.14519">
        <ele>523.094604</ele>
        <time>2011-01-14T15:19:10Z</time>
      </trkpt>
      <trkpt lat="45.82239" lon="6.14503">
        <ele>524.055786</ele>
        <time>2011-01-14T15:19:20Z</time>
      </trkpt>
      <trkpt lat="45.82228" lon="6.14484">
        <ele>524.536499</ele>
        <time>2011-01-14T15:19:30Z</time>
      </trkpt>
      <trkpt lat="45.82223" lon="6.14466">
        <ele>525.017212</ele>
        <time>2011-01-14T15:19:39Z</time>
      </trkpt>
      <trkpt lat="45.82218" lon="6.14444">
        <ele>526.459106</ele>
        <time>2011-01-14T15:19:49Z</time>
      </trkpt>
      <trkpt lat="45.82213" lon="6.14424">
        <ele>526.939819</ele>
        <time>2011-01-14T15:20:00Z</time>
      </trkpt>
      <trkpt lat="45.8221" lon="6.1441">
        <ele>526.939819</ele>
        <time>2011-01-14T15:20:07Z</time>
      </trkpt>
      <trkpt lat="45.822" lon="6.14392">
        <ele>527.42041</ele>
        <time>2011-01-14T15:20:17Z</time>
      </trkpt>
      <trkpt lat="45.82192" lon="6.14376">
        <ele>527.901001</ele>
        <time>2011-01-14T15:20:26Z</time>
      </trkpt>
      <trkpt lat="45.82189" lon="6.14358">
        <ele>529.82373</ele>
        <time>2011-01-14T15:20:34Z</time>
      </trkpt>
      <trkpt lat="45.82187" lon="6.14342">
        <ele>530.304443</ele>
        <time>2011-01-14T15:20:41Z</time>
      </trkpt>
      <trkpt lat="45.82187" lon="6.14325">
        <ele>531.746338</ele>
        <time>2011-01-14T15:20:49Z</time>
      </trkpt>
      <trkpt lat="45.82182" lon="6.14313">
        <ele>532.707764</ele>
        <time>2011-01-14T15:20:56Z</time>
      </trkpt>
      <trkpt lat="45.82175" lon="6.14301">
        <ele>534.149658</ele>
        <time>2011-01-14T15:21:04Z</time>
      </trkpt>
      <trkpt lat="45.82167" lon="6.14287">
        <ele>535.591553</ele>
        <time>2011-01-14T15:21:13Z</time>
      </trkpt>
      <trkpt lat="45.82156" lon="6.14269">
        <ele>537.514282</ele>
        <time>2011-01-14T15:21:24Z</time>
      </trkpt>
      <trkpt lat="45.82144" lon="6.14251">
        <ele>539.43689</ele>
        <time>2011-01-14T15:21:35Z</time>
      </trkpt>
      <trkpt lat="45.82133" lon="6.14241">
        <ele>540.878906</ele>
        <time>2011-01-14T15:21:45Z</time>
      </trkpt>
      <trkpt lat="45.82122" lon="6.14231">
        <ele>541.84021</ele>
        <time>2011-01-14T15:21:55Z</time>
      </trkpt>
      <trkpt lat="45.82109" lon="6.14217">
        <ele>543.762817</ele>
        <time>2011-01-14T15:22:06Z</time>
      </trkpt>
      <trkpt lat="45.82101" lon="6.14206">
        <ele>546.16626</ele>
        <time>2011-01-14T15:22:15Z</time>
      </trkpt>
      <trkpt lat="45.8209" lon="6.14197">
        <ele>547.608154</ele>
        <time>2011-01-14T15:22:24Z</time>
      </trkpt>
      <trkpt lat="45.82084" lon="6.14189">
        <ele>549.530762</ele>
        <time>2011-01-14T15:22:31Z</time>
      </trkpt>
      <trkpt lat="45.8208" lon="6.14168">
        <ele>547.608154</ele>
        <time>2011-01-14T15:22:41Z</time>
      </trkpt>
      <trkpt lat="45.82081" lon="6.14158">
        <ele>547.127441</ele>
        <time>2011-01-14T15:22:46Z</time>
      </trkpt>
      <trkpt lat="45.82078" lon="6.14143">
        <ele>546.646851</ele>
        <time>2011-01-14T15:22:53Z</time>
      </trkpt>
      <trkpt lat="45.82073" lon="6.14137">
        <ele>546.646851</ele>
        <time>2011-01-14T15:22:57Z</time>
      </trkpt>
      <trkpt lat="45.82063" lon="6.1413">
        <ele>547.127441</ele>
        <time>2011-01-14T15:23:06Z</time>
      </trkpt>
      <trkpt lat="45.82055" lon="6.14131">
        <ele>547.127441</ele>
        <time>2011-01-14T15:23:15Z</time>
      </trkpt>
      <trkpt lat="45.82044" lon="6.14145">
        <ele>548.088867</ele>
        <time>2011-01-14T15:24:18Z</time>
      </trkpt>
      <trkpt lat="45.82036" lon="6.14154">
        <ele>548.569336</ele>
        <time>2011-01-14T15:24:27Z</time>
      </trkpt>
      <trkpt lat="45.8203" lon="6.14162">
        <ele>549.050049</ele>
        <time>2011-01-14T15:24:38Z</time>
      </trkpt>
      <trkpt lat="45.82026" lon="6.14165">
        <ele>549.530762</ele>
        <time>2011-01-14T15:24:44Z</time>
      </trkpt>
      <trkpt lat="45.82023" lon="6.14174">
        <ele>549.530762</ele>
        <time>2011-01-14T15:24:51Z</time>
      </trkpt>
      <trkpt lat="45.82023" lon="6.14181">
        <ele>550.011475</ele>
        <time>2011-01-14T15:24:56Z</time>
      </trkpt>
      <trkpt lat="45.82023" lon="6.14196">
        <ele>551.453369</ele>
        <time>2011-01-14T15:25:03Z</time>
      </trkpt>
      <trkpt lat="45.82025" lon="6.14206">
        <ele>552.414551</ele>
        <time>2011-01-14T15:25:10Z</time>
      </trkpt>
      <trkpt lat="45.82024" lon="6.14209">
        <ele>552.895264</ele>
        <time>2011-01-14T15:25:12Z</time>
      </trkpt>
      <trkpt lat="45.82021" lon="6.14218">
        <ele>553.375977</ele>
        <time>2011-01-14T15:25:18Z</time>
      </trkpt>
      <trkpt lat="45.82023" lon="6.14238">
        <ele>553.856689</ele>
        <time>2011-01-14T15:25:27Z</time>
      </trkpt>
      <trkpt lat="45.82015" lon="6.14253">
        <ele>554.337402</ele>
        <time>2011-01-14T15:25:36Z</time>
      </trkpt>
      <trkpt lat="45.82013" lon="6.14264">
        <ele>555.298584</ele>
        <time>2011-01-14T15:25:43Z</time>
      </trkpt>
      <trkpt lat="45.82018" lon="6.1428">
        <ele>557.221436</ele>
        <time>2011-01-14T15:25:51Z</time>
      </trkpt>
      <trkpt lat="45.8202" lon="6.1429">
        <ele>558.182861</ele>
        <time>2011-01-14T15:25:57Z</time>
      </trkpt>
      <trkpt lat="45.82024" lon="6.14297">
        <ele>560.105225</ele>
        <time>2011-01-14T15:26:04Z</time>
      </trkpt>
      <trkpt lat="45.8203" lon="6.14305">
        <ele>561.547363</ele>
        <time>2011-01-14T15:26:11Z</time>
      </trkpt>
      <trkpt lat="45.82031" lon="6.14321">
        <ele>562.508545</ele>
        <time>2011-01-14T15:26:18Z</time>
      </trkpt>
      <trkpt lat="45.82032" lon="6.14336">
        <ele>563.469971</ele>
        <time>2011-01-14T15:26:26Z</time>
      </trkpt>
      <trkpt lat="45.82033" lon="6.14343">
        <ele>564.911865</ele>
        <time>2011-01-14T15:26:30Z</time>
      </trkpt>
      <trkpt lat="45.82034" lon="6.1436">
        <ele>565.873291</ele>
        <time>2011-01-14T15:26:40Z</time>
      </trkpt>
      <trkpt lat="45.82034" lon="6.14367">
        <ele>566.35376</ele>
        <time>2011-01-14T15:26:46Z</time>
      </trkpt>
      <trkpt lat="45.82031" lon="6.14368">
        <ele>566.834473</ele>
        <time>2011-01-14T15:26:50Z</time>
      </trkpt>
      <trkpt lat="45.82028" lon="6.14366">
        <ele>566.834473</ele>
        <time>2011-01-14T15:26:53Z</time>
      </trkpt>
      <trkpt lat="45.82025" lon="6.1436">
        <ele>567.315186</ele>
        <time>2011-01-14T15:26:58Z</time>
      </trkpt>
      <trkpt lat="45.82016" lon="6.14344">
        <ele>567.795654</ele>
        <time>2011-01-14T15:27:09Z</time>
      </trkpt>
      <trkpt lat="45.82007" lon="6.14334">
        <ele>568.276367</ele>
        <time>2011-01-14T15:27:18Z</time>
      </trkpt>
      <trkpt lat="45.82002" lon="6.14332">
        <ele>568.75708</ele>
        <time>2011-01-14T15:27:22Z</time>
      </trkpt>
      <trkpt lat="45.81987" lon="6.14332">
        <ele>570.679688</ele>
        <time>2011-01-14T15:27:34Z</time>
      </trkpt>
      <trkpt lat="45.81974" lon="6.14335">
        <ele>572.602539</ele>
        <time>2011-01-14T15:27:43Z</time>
      </trkpt>
      <trkpt lat="45.81961" lon="6.14327">
        <ele>575.486328</ele>
        <time>2011-01-14T15:28:19Z</time>
      </trkpt>
      <trkpt lat="45.81958" lon="6.14324">
        <ele>575.967041</ele>
        <time>2011-01-14T15:28:27Z</time>
      </trkpt>
      <trkpt lat="45.81954" lon="6.14317">
        <ele>576.447754</ele>
        <time>2011-01-14T15:28:36Z</time>
      </trkpt>
      <trkpt lat="45.8195" lon="6.1431">
        <ele>577.889648</ele>
        <time>2011-01-14T15:28:48Z</time>
      </trkpt>
      <trkpt lat="45.81946" lon="6.14302">
        <ele>578.851074</ele>
        <time>2011-01-14T15:28:55Z</time>
      </trkpt>
      <trkpt lat="45.81944" lon="6.14293">
        <ele>580.292969</ele>
        <time>2011-01-14T15:29:02Z</time>
      </trkpt>
      <trkpt lat="45.81938" lon="6.1428">
        <ele>581.734863</ele>
        <time>2011-01-14T15:29:11Z</time>
      </trkpt>
      <trkpt lat="45.81935" lon="6.14277">
        <ele>581.734863</ele>
        <time>2011-01-14T15:29:17Z</time>
      </trkpt>
      <trkpt lat="45.81933" lon="6.14268">
        <ele>583.176758</ele>
        <time>2011-01-14T15:29:23Z</time>
      </trkpt>
      <trkpt lat="45.81931" lon="6.14254">
        <ele>585.099609</ele>
        <time>2011-01-14T15:29:31Z</time>
      </trkpt>
      <trkpt lat="45.81931" lon="6.14252">
        <ele>585.099609</ele>
        <time>2011-01-14T15:29:32Z</time>
      </trkpt>
      <trkpt lat="45.81927" lon="6.14236">
        <ele>587.502686</ele>
        <time>2011-01-14T15:29:41Z</time>
      </trkpt>
      <trkpt lat="45.81917" lon="6.14227">
        <ele>588.464355</ele>
        <time>2011-01-14T15:29:50Z</time>
      </trkpt>
      <trkpt lat="45.81909" lon="6.14223">
        <ele>590.386963</ele>
        <time>2011-01-14T15:29:57Z</time>
      </trkpt>
      <trkpt lat="45.81902" lon="6.14219">
        <ele>591.348145</ele>
        <time>2011-01-14T15:30:03Z</time>
      </trkpt>
      <trkpt lat="45.81901" lon="6.14215">
        <ele>591.348145</ele>
        <time>2011-01-14T15:30:10Z</time>
      </trkpt>
      <trkpt lat="45.81897" lon="6.14208">
        <ele>590.867432</ele>
        <time>2011-01-14T15:30:16Z</time>
      </trkpt>
      <trkpt lat="45.81892" lon="6.14201">
        <ele>591.348145</ele>
        <time>2011-01-14T15:30:24Z</time>
      </trkpt>
      <trkpt lat="45.81889" lon="6.14193">
        <ele>592.30957</ele>
        <time>2011-01-14T15:30:31Z</time>
      </trkpt>
      <trkpt lat="45.81881" lon="6.14186">
        <ele>593.751465</ele>
        <time>2011-01-14T15:30:39Z</time>
      </trkpt>
      <trkpt lat="45.81876" lon="6.14178">
        <ele>596.154785</ele>
        <time>2011-01-14T15:30:48Z</time>
      </trkpt>
      <trkpt lat="45.81863" lon="6.14173">
        <ele>597.115967</ele>
        <time>2011-01-14T15:30:59Z</time>
      </trkpt>
      <trkpt lat="45.81853" lon="6.14168">
        <ele>599.038574</ele>
        <time>2011-01-14T15:31:08Z</time>
      </trkpt>
      <trkpt lat="45.81845" lon="6.14169">
        <ele>600.480713</ele>
        <time>2011-01-14T15:31:15Z</time>
      </trkpt>
      <trkpt lat="45.81842" lon="6.14165">
        <ele>601.922607</ele>
        <time>2011-01-14T15:31:21Z</time>
      </trkpt>
      <trkpt lat="45.81837" lon="6.14162">
        <ele>602.883789</ele>
        <time>2011-01-14T15:31:28Z</time>
      </trkpt>
      <trkpt lat="45.81833" lon="6.14156">
        <ele>603.845215</ele>
        <time>2011-01-14T15:31:35Z</time>
      </trkpt>
      <trkpt lat="45.81825" lon="6.1415">
        <ele>605.287354</ele>
        <time>2011-01-14T15:31:43Z</time>
      </trkpt>
      <trkpt lat="45.81818" lon="6.14141">
        <ele>606.248535</ele>
        <time>2011-01-14T15:31:51Z</time>
      </trkpt>
      <trkpt lat="45.81811" lon="6.14131">
        <ele>608.171387</ele>
        <time>2011-01-14T15:32:01Z</time>
      </trkpt>
      <trkpt lat="45.81806" lon="6.14125">
        <ele>609.132568</ele>
        <time>2011-01-14T15:32:07Z</time>
      </trkpt>
      <trkpt lat="45.81805" lon="6.14117">
        <ele>611.535889</ele>
        <time>2011-01-14T15:32:14Z</time>
      </trkpt>
      <trkpt lat="45.81801" lon="6.14114">
        <ele>612.49707</ele>
        <time>2011-01-14T15:32:21Z</time>
      </trkpt>
      <trkpt lat="45.81797" lon="6.14114">
        <ele>613.938965</ele>
        <time>2011-01-14T15:32:28Z</time>
      </trkpt>
      <trkpt lat="45.81795" lon="6.14118">
        <ele>614.419678</ele>
        <time>2011-01-14T15:32:31Z</time>
      </trkpt>
      <trkpt lat="45.81789" lon="6.14127">
        <ele>615.381104</ele>
        <time>2011-01-14T15:32:40Z</time>
      </trkpt>
      <trkpt lat="45.81778" lon="6.14128">
        <ele>617.303711</ele>
        <time>2011-01-14T15:32:47Z</time>
      </trkpt>
      <trkpt lat="45.81773" lon="6.14125">
        <ele>617.78418</ele>
        <time>2011-01-14T15:32:53Z</time>
      </trkpt>
      <trkpt lat="45.81767" lon="6.1412">
        <ele>619.226318</ele>
        <time>2011-01-14T15:33:01Z</time>
      </trkpt>
      <trkpt lat="45.8176" lon="6.14111">
        <ele>621.629639</ele>
        <time>2011-01-14T15:33:10Z</time>
      </trkpt>
      <trkpt lat="45.81758" lon="6.14104">
        <ele>622.110352</ele>
        <time>2011-01-14T15:33:16Z</time>
      </trkpt>
      <trkpt lat="45.81753" lon="6.14099">
        <ele>623.55249</ele>
        <time>2011-01-14T15:33:22Z</time>
      </trkpt>
      <trkpt lat="45.81746" lon="6.14097">
        <ele>624.994385</ele>
        <time>2011-01-14T15:33:29Z</time>
      </trkpt>
      <trkpt lat="45.81743" lon="6.14097">
        <ele>625.474854</ele>
        <time>2011-01-14T15:33:31Z</time>
      </trkpt>
      <trkpt lat="45.81734" lon="6.14105">
        <ele>627.878174</ele>
        <time>2011-01-14T15:33:41Z</time>
      </trkpt>
      <trkpt lat="45.81723" lon="6.14104">
        <ele>630.281494</ele>
        <time>2011-01-14T15:33:49Z</time>
      </trkpt>
      <trkpt lat="45.81721" lon="6.14105">
        <ele>630.762207</ele>
        <time>2011-01-14T15:33:51Z</time>
      </trkpt>
      <trkpt lat="45.81719" lon="6.14107">
        <ele>632.204102</ele>
        <time>2011-01-14T15:33:57Z</time>
      </trkpt>
      <trkpt lat="45.81713" lon="6.14105">
        <ele>634.126709</ele>
        <time>2011-01-14T15:34:03Z</time>
      </trkpt>
      <trkpt lat="45.81704" lon="6.14105">
        <ele>635.088135</ele>
        <time>2011-01-14T15:34:10Z</time>
      </trkpt>
      <trkpt lat="45.81698" lon="6.14109">
        <ele>635.088135</ele>
        <time>2011-01-14T15:34:17Z</time>
      </trkpt>
      <trkpt lat="45.81697" lon="6.14109">
        <ele>635.568604</ele>
        <time>2011-01-14T15:34:18Z</time>
      </trkpt>
      <trkpt lat="45.81684" lon="6.14107">
        <ele>636.049561</ele>
        <time>2011-01-14T15:34:26Z</time>
      </trkpt>
      <trkpt lat="45.81669" lon="6.14101">
        <ele>636.530273</ele>
        <time>2011-01-14T15:34:36Z</time>
      </trkpt>
      <trkpt lat="45.81653" lon="6.14094">
        <ele>637.010742</ele>
        <time>2011-01-14T15:34:48Z</time>
      </trkpt>
      <trkpt lat="45.81634" lon="6.14086">
        <ele>635.568604</ele>
        <time>2011-01-14T15:35:02Z</time>
      </trkpt>
      <trkpt lat="45.81613" lon="6.14083">
        <ele>633.645996</ele>
        <time>2011-01-14T15:35:16Z</time>
      </trkpt>
      <trkpt lat="45.81595" lon="6.1408">
        <ele>633.645996</ele>
        <time>2011-01-14T15:35:28Z</time>
      </trkpt>
      <trkpt lat="45.8158" lon="6.14074">
        <ele>632.684814</ele>
        <time>2011-01-14T15:35:39Z</time>
      </trkpt>
      <trkpt lat="45.81568" lon="6.1407">
        <ele>631.723389</ele>
        <time>2011-01-14T15:35:47Z</time>
      </trkpt>
      <trkpt lat="45.81553" lon="6.1407">
        <ele>631.24292</ele>
        <time>2011-01-14T15:35:57Z</time>
      </trkpt>
      <trkpt lat="45.81538" lon="6.14065">
        <ele>630.762207</ele>
        <time>2011-01-14T15:36:07Z</time>
      </trkpt>
      <trkpt lat="45.81524" lon="6.14062">
        <ele>630.281494</ele>
        <time>2011-01-14T15:36:17Z</time>
      </trkpt>
      <trkpt lat="45.81506" lon="6.14056">
        <ele>629.800781</ele>
        <time>2011-01-14T15:36:29Z</time>
      </trkpt>
      <trkpt lat="45.81491" lon="6.1405">
        <ele>629.320068</ele>
        <time>2011-01-14T15:36:39Z</time>
      </trkpt>
      <trkpt lat="45.81481" lon="6.14042">
        <ele>628.358887</ele>
        <time>2011-01-14T15:36:49Z</time>
      </trkpt>
      <trkpt lat="45.81474" lon="6.14044">
        <ele>629.320068</ele>
        <time>2011-01-14T15:36:56Z</time>
      </trkpt>
      <trkpt lat="45.81459" lon="6.14051">
        <ele>630.762207</ele>
        <time>2011-01-14T15:37:06Z</time>
      </trkpt>
      <trkpt lat="45.8144" lon="6.1405">
        <ele>629.800781</ele>
        <time>2011-01-14T15:37:18Z</time>
      </trkpt>
      <trkpt lat="45.8142" lon="6.14047">
        <ele>629.320068</ele>
        <time>2011-01-14T15:37:30Z</time>
      </trkpt>
      <trkpt lat="45.81407" lon="6.14045">
        <ele>627.397705</ele>
        <time>2011-01-14T15:37:40Z</time>
      </trkpt>
      <trkpt lat="45.81407" lon="6.14043">
        <ele>627.397705</ele>
        <time>2011-01-14T15:37:41Z</time>
      </trkpt>
      <trkpt lat="45.814" lon="6.14035">
        <ele>627.397705</ele>
        <time>2011-01-14T15:37:48Z</time>
      </trkpt>
      <trkpt lat="45.81398" lon="6.14034">
        <ele>627.878174</ele>
        <time>2011-01-14T15:37:52Z</time>
      </trkpt>
      <trkpt lat="45.8139" lon="6.14038">
        <ele>628.358887</ele>
        <time>2011-01-14T15:37:59Z</time>
      </trkpt>
      <trkpt lat="45.81374" lon="6.14042">
        <ele>629.320068</ele>
        <time>2011-01-14T15:38:07Z</time>
      </trkpt>
      <trkpt lat="45.8136" lon="6.14047">
        <ele>629.800781</ele>
        <time>2011-01-14T15:38:16Z</time>
      </trkpt>
      <trkpt lat="45.81344" lon="6.14048">
        <ele>630.762207</ele>
        <time>2011-01-14T15:38:26Z</time>
      </trkpt>
      <trkpt lat="45.81327" lon="6.14045">
        <ele>630.762207</ele>
        <time>2011-01-14T15:38:39Z</time>
      </trkpt>
      <trkpt lat="45.81309" lon="6.14044">
        <ele>630.281494</ele>
        <time>2011-01-14T15:38:51Z</time>
      </trkpt>
      <trkpt lat="45.81295" lon="6.14044">
        <ele>630.281494</ele>
        <time>2011-01-14T15:39:00Z</time>
      </trkpt>
      <trkpt lat="45.8128" lon="6.14043">
        <ele>630.281494</ele>
        <time>2011-01-14T15:39:10Z</time>
      </trkpt>
      <trkpt lat="45.81262" lon="6.14042">
        <ele>630.281494</ele>
        <time>2011-01-14T15:39:22Z</time>
      </trkpt>
      <trkpt lat="45.81253" lon="6.14038">
        <ele>630.762207</ele>
        <time>2011-01-14T15:39:29Z</time>
      </trkpt>
      <trkpt lat="45.81242" lon="6.14024">
        <ele>632.204102</ele>
        <time>2011-01-14T15:39:39Z</time>
      </trkpt>
      <trkpt lat="45.81239" lon="6.14016">
        <ele>631.24292</ele>
        <time>2011-01-14T15:39:46Z</time>
      </trkpt>
      <trkpt lat="45.81235" lon="6.14003">
        <ele>631.24292</ele>
        <time>2011-01-14T15:39:53Z</time>
      </trkpt>
      <trkpt lat="45.81232" lon="6.13999">
        <ele>631.24292</ele>
        <time>2011-01-14T15:39:57Z</time>
      </trkpt>
      <trkpt lat="45.81227" lon="6.14007">
        <ele>630.762207</ele>
        <time>2011-01-14T15:40:04Z</time>
      </trkpt>
      <trkpt lat="45.81215" lon="6.14019">
        <ele>630.762207</ele>
        <time>2011-01-14T15:40:12Z</time>
      </trkpt>
      <trkpt lat="45.812" lon="6.14028">
        <ele>631.24292</ele>
        <time>2011-01-14T15:40:21Z</time>
      </trkpt>
      <trkpt lat="45.81181" lon="6.14033">
        <ele>631.723389</ele>
        <time>2011-01-14T15:40:34Z</time>
      </trkpt>
      <trkpt lat="45.81163" lon="6.14034">
        <ele>632.204102</ele>
        <time>2011-01-14T15:40:45Z</time>
      </trkpt>
      <trkpt lat="45.81145" lon="6.14033">
        <ele>632.684814</ele>
        <time>2011-01-14T15:40:57Z</time>
      </trkpt>
      <trkpt lat="45.81125" lon="6.14031">
        <ele>633.165283</ele>
        <time>2011-01-14T15:41:10Z</time>
      </trkpt>
      <trkpt lat="45.81105" lon="6.14031">
        <ele>633.645996</ele>
        <time>2011-01-14T15:41:24Z</time>
      </trkpt>
      <trkpt lat="45.81081" lon="6.14036">
        <ele>632.684814</ele>
        <time>2011-01-14T15:41:40Z</time>
      </trkpt>
      <trkpt lat="45.81062" lon="6.14034">
        <ele>631.24292</ele>
        <time>2011-01-14T15:41:53Z</time>
      </trkpt>
      <trkpt lat="45.8105" lon="6.14028">
        <ele>628.358887</ele>
        <time>2011-01-14T15:42:02Z</time>
      </trkpt>
      <trkpt lat="45.81044" lon="6.14032">
        <ele>627.397705</ele>
        <time>2011-01-14T15:42:09Z</time>
      </trkpt>
      <trkpt lat="45.81043" lon="6.14039">
        <ele>626.916992</ele>
        <time>2011-01-14T15:42:19Z</time>
      </trkpt>
      <trkpt lat="45.81041" lon="6.14047">
        <ele>626.916992</ele>
        <time>2011-01-14T15:42:46Z</time>
      </trkpt>
      <trkpt lat="45.81032" lon="6.14043">
        <ele>627.397705</ele>
        <time>2011-01-14T15:44:04Z</time>
      </trkpt>
      <trkpt lat="45.81019" lon="6.14038">
        <ele>628.8396</ele>
        <time>2011-01-14T15:44:14Z</time>
      </trkpt>
      <trkpt lat="45.81002" lon="6.14031">
        <ele>629.800781</ele>
        <time>2011-01-14T15:44:26Z</time>
      </trkpt>
      <trkpt lat="45.80987" lon="6.14021">
        <ele>631.24292</ele>
        <time>2011-01-14T15:44:38Z</time>
      </trkpt>
      <trkpt lat="45.80968" lon="6.14009">
        <ele>632.684814</ele>
        <time>2011-01-14T15:44:52Z</time>
      </trkpt>
      <trkpt lat="45.80953" lon="6.14008">
        <ele>634.607422</ele>
        <time>2011-01-14T15:45:02Z</time>
      </trkpt>
      <trkpt lat="45.8093" lon="6.14015">
        <ele>636.530273</ele>
        <time>2011-01-14T15:45:18Z</time>
      </trkpt>
      <trkpt lat="45.80925" lon="6.14017">
        <ele>636.530273</ele>
        <time>2011-01-14T15:45:22Z</time>
      </trkpt>
      <trkpt lat="45.80909" lon="6.14015">
        <ele>637.972168</ele>
        <time>2011-01-14T15:45:33Z</time>
      </trkpt>
      <trkpt lat="45.80893" lon="6.14009">
        <ele>638.452881</ele>
        <time>2011-01-14T15:45:44Z</time>
      </trkpt>
      <trkpt lat="45.80878" lon="6.14001">
        <ele>639.414063</ele>
        <time>2011-01-14T15:45:55Z</time>
      </trkpt>
      <trkpt lat="45.80858" lon="6.13993">
        <ele>640.855957</ele>
        <time>2011-01-14T15:46:09Z</time>
      </trkpt>
      <trkpt lat="45.80841" lon="6.13982">
        <ele>642.298096</ele>
        <time>2011-01-14T15:46:22Z</time>
      </trkpt>
      <trkpt lat="45.80825" lon="6.13964">
        <ele>644.701172</ele>
        <time>2011-01-14T15:46:36Z</time>
      </trkpt>
      <trkpt lat="45.80816" lon="6.1395">
        <ele>645.181885</ele>
        <time>2011-01-14T15:46:46Z</time>
      </trkpt>
      <trkpt lat="45.80805" lon="6.13933">
        <ele>647.585205</ele>
        <time>2011-01-14T15:46:57Z</time>
      </trkpt>
      <trkpt lat="45.80795" lon="6.13918">
        <ele>648.546387</ele>
        <time>2011-01-14T15:47:07Z</time>
      </trkpt>
      <trkpt lat="45.8078" lon="6.13913">
        <ele>649.988525</ele>
        <time>2011-01-14T15:47:18Z</time>
      </trkpt>
      <trkpt lat="45.80767" lon="6.13924">
        <ele>650.949707</ele>
        <time>2011-01-14T15:47:29Z</time>
      </trkpt>
      <trkpt lat="45.80759" lon="6.13943">
        <ele>651.43042</ele>
        <time>2011-01-14T15:47:40Z</time>
      </trkpt>
      <trkpt lat="45.80756" lon="6.13958">
        <ele>652.872559</ele>
        <time>2011-01-14T15:47:49Z</time>
      </trkpt>
      <trkpt lat="45.80748" lon="6.13974">
        <ele>653.833984</ele>
        <time>2011-01-14T15:47:58Z</time>
      </trkpt>
      <trkpt lat="45.80737" lon="6.13985">
        <ele>655.275879</ele>
        <time>2011-01-14T15:48:08Z</time>
      </trkpt>
      <trkpt lat="45.80722" lon="6.13994">
        <ele>656.237061</ele>
        <time>2011-01-14T15:48:19Z</time>
      </trkpt>
      <trkpt lat="45.80713" lon="6.14003">
        <ele>656.717773</ele>
        <time>2011-01-14T15:48:27Z</time>
      </trkpt>
      <trkpt lat="45.80707" lon="6.14006">
        <ele>656.717773</ele>
        <time>2011-01-14T15:48:34Z</time>
      </trkpt>
      <trkpt lat="45.80707" lon="6.14007">
        <ele>657.198486</ele>
        <time>2011-01-14T15:48:35Z</time>
      </trkpt>
      <trkpt lat="45.80695" lon="6.14013">
        <ele>657.679199</ele>
        <time>2011-01-14T15:48:43Z</time>
      </trkpt>
      <trkpt lat="45.80688" lon="6.14016">
        <ele>657.198486</ele>
        <time>2011-01-14T15:48:52Z</time>
      </trkpt>
      <trkpt lat="45.80687" lon="6.14025">
        <ele>656.237061</ele>
        <time>2011-01-14T15:49:01Z</time>
      </trkpt>
      <trkpt lat="45.80687" lon="6.14027">
        <ele>655.756592</ele>
        <time>2011-01-14T15:49:02Z</time>
      </trkpt>
      <trkpt lat="45.80685" lon="6.14042">
        <ele>654.314697</ele>
        <time>2011-01-14T15:49:10Z</time>
      </trkpt>
      <trkpt lat="45.80683" lon="6.14047">
        <ele>653.833984</ele>
        <time>2011-01-14T15:49:12Z</time>
      </trkpt>
      <trkpt lat="45.80672" lon="6.14058">
        <ele>652.391846</ele>
        <time>2011-01-14T15:49:21Z</time>
      </trkpt>
      <trkpt lat="45.80665" lon="6.14061">
        <ele>651.43042</ele>
        <time>2011-01-14T15:49:28Z</time>
      </trkpt>
      <trkpt lat="45.80661" lon="6.14061">
        <ele>650.469238</ele>
        <time>2011-01-14T15:49:35Z</time>
      </trkpt>
      <trkpt lat="45.80658" lon="6.14063">
        <ele>650.469238</ele>
        <time>2011-01-14T15:49:41Z</time>
      </trkpt>
      <trkpt lat="45.80658" lon="6.14064">
        <ele>650.469238</ele>
        <time>2011-01-14T15:49:44Z</time>
      </trkpt>
      <trkpt lat="45.8065" lon="6.14079">
        <ele>650.949707</ele>
        <time>2011-01-14T15:49:53Z</time>
      </trkpt>
      <trkpt lat="45.80647" lon="6.14086">
        <ele>651.43042</ele>
        <time>2011-01-14T15:50:00Z</time>
      </trkpt>
      <trkpt lat="45.80644" lon="6.14089">
        <ele>651.43042</ele>
        <time>2011-01-14T15:50:11Z</time>
      </trkpt>
      <trkpt lat="45.8064" lon="6.14096">
        <ele>651.911133</ele>
        <time>2011-01-14T15:50:31Z</time>
      </trkpt>
      <trkpt lat="45.80638" lon="6.14096">
        <ele>650.469238</ele>
        <time>2011-01-14T15:50:51Z</time>
      </trkpt>
      <trkpt lat="45.80634" lon="6.14098">
        <ele>651.911133</ele>
        <time>2011-01-14T15:51:33Z</time>
      </trkpt>
      <trkpt lat="45.80621" lon="6.14106">
        <ele>653.353271</ele>
        <time>2011-01-14T15:51:42Z</time>
      </trkpt>
      <trkpt lat="45.80617" lon="6.14108">
        <ele>653.353271</ele>
        <time>2011-01-14T15:51:46Z</time>
      </trkpt>
      <trkpt lat="45.80608" lon="6.14102">
        <ele>653.833984</ele>
        <time>2011-01-14T15:51:55Z</time>
      </trkpt>
      <trkpt lat="45.80603" lon="6.14102">
        <ele>654.795166</ele>
        <time>2011-01-14T15:51:58Z</time>
      </trkpt>
      <trkpt lat="45.80593" lon="6.14107">
        <ele>655.275879</ele>
        <time>2011-01-14T15:52:06Z</time>
      </trkpt>
      <trkpt lat="45.80582" lon="6.14111">
        <ele>656.237061</ele>
        <time>2011-01-14T15:52:15Z</time>
      </trkpt>
      <trkpt lat="45.80575" lon="6.14111">
        <ele>657.679199</ele>
        <time>2011-01-14T15:52:22Z</time>
      </trkpt>
      <trkpt lat="45.80568" lon="6.14113">
        <ele>658.640381</ele>
        <time>2011-01-14T15:52:30Z</time>
      </trkpt>
      <trkpt lat="45.80561" lon="6.14122">
        <ele>659.121094</ele>
        <time>2011-01-14T15:52:38Z</time>
      </trkpt>
      <trkpt lat="45.80555" lon="6.14128">
        <ele>660.562988</ele>
        <time>2011-01-14T15:52:44Z</time>
      </trkpt>
      <trkpt lat="45.80546" lon="6.14139">
        <ele>661.524414</ele>
        <time>2011-01-14T15:52:52Z</time>
      </trkpt>
      <trkpt lat="45.80538" lon="6.14145">
        <ele>662.485596</ele>
        <time>2011-01-14T15:53:00Z</time>
      </trkpt>
      <trkpt lat="45.80525" lon="6.1415">
        <ele>663.92749</ele>
        <time>2011-01-14T15:53:09Z</time>
      </trkpt>
      <trkpt lat="45.80514" lon="6.14154">
        <ele>665.369629</ele>
        <time>2011-01-14T15:53:16Z</time>
      </trkpt>
      <trkpt lat="45.80512" lon="6.14154">
        <ele>665.850342</ele>
        <time>2011-01-14T15:53:17Z</time>
      </trkpt>
      <trkpt lat="45.80502" lon="6.1415">
        <ele>667.292236</ele>
        <time>2011-01-14T15:53:27Z</time>
      </trkpt>
      <trkpt lat="45.80495" lon="6.14152">
        <ele>669.215088</ele>
        <time>2011-01-14T15:53:35Z</time>
      </trkpt>
      <trkpt lat="45.80492" lon="6.14156">
        <ele>670.17627</ele>
        <time>2011-01-14T15:53:39Z</time>
      </trkpt>
      <trkpt lat="45.8048" lon="6.14165">
        <ele>670.656982</ele>
        <time>2011-01-14T15:53:48Z</time>
      </trkpt>
      <trkpt lat="45.80476" lon="6.14167">
        <ele>670.656982</ele>
        <time>2011-01-14T15:53:51Z</time>
      </trkpt>
      <trkpt lat="45.80467" lon="6.14173">
        <ele>671.137695</ele>
        <time>2011-01-14T15:53:59Z</time>
      </trkpt>
      <trkpt lat="45.80459" lon="6.14174">
        <ele>671.137695</ele>
        <time>2011-01-14T15:54:06Z</time>
      </trkpt>
      <trkpt lat="45.80448" lon="6.14178">
        <ele>671.618164</ele>
        <time>2011-01-14T15:54:13Z</time>
      </trkpt>
      <trkpt lat="45.80437" lon="6.14181">
        <ele>672.57959</ele>
        <time>2011-01-14T15:54:22Z</time>
      </trkpt>
      <trkpt lat="45.80421" lon="6.14186">
        <ele>673.541016</ele>
        <time>2011-01-14T15:54:31Z</time>
      </trkpt>
      <trkpt lat="45.80414" lon="6.14179">
        <ele>674.502197</ele>
        <time>2011-01-14T15:54:39Z</time>
      </trkpt>
      <trkpt lat="45.80411" lon="6.14173">
        <ele>674.98291</ele>
        <time>2011-01-14T15:54:46Z</time>
      </trkpt>
      <trkpt lat="45.80402" lon="6.14171">
        <ele>677.866699</ele>
        <time>2011-01-14T15:54:55Z</time>
      </trkpt>
      <trkpt lat="45.80395" lon="6.14167">
        <ele>678.347412</ele>
        <time>2011-01-14T15:55:02Z</time>
      </trkpt>
      <trkpt lat="45.80384" lon="6.14167">
        <ele>679.789307</ele>
        <time>2011-01-14T15:55:11Z</time>
      </trkpt>
      <trkpt lat="45.80379" lon="6.14165">
        <ele>680.27002</ele>
        <time>2011-01-14T15:55:17Z</time>
      </trkpt>
      <trkpt lat="45.80367" lon="6.14167">
        <ele>681.711914</ele>
        <time>2011-01-14T15:55:25Z</time>
      </trkpt>
      <trkpt lat="45.80361" lon="6.14163">
        <ele>682.67334</ele>
        <time>2011-01-14T15:55:31Z</time>
      </trkpt>
      <trkpt lat="45.80352" lon="6.14165">
        <ele>683.153809</ele>
        <time>2011-01-14T15:55:39Z</time>
      </trkpt>
      <trkpt lat="45.80342" lon="6.14162">
        <ele>685.076904</ele>
        <time>2011-01-14T15:55:48Z</time>
      </trkpt>
      <trkpt lat="45.80335" lon="6.14157">
        <ele>686.038086</ele>
        <time>2011-01-14T15:55:55Z</time>
      </trkpt>
      <trkpt lat="45.80332" lon="6.14155">
        <ele>686.518799</ele>
        <time>2011-01-14T15:55:59Z</time>
      </trkpt>
      <trkpt lat="45.80322" lon="6.14153">
        <ele>686.999268</ele>
        <time>2011-01-14T15:56:07Z</time>
      </trkpt>
      <trkpt lat="45.80316" lon="6.14155">
        <ele>686.999268</ele>
        <time>2011-01-14T15:56:13Z</time>
      </trkpt>
      <trkpt lat="45.80305" lon="6.14157">
        <ele>686.999268</ele>
        <time>2011-01-14T15:56:20Z</time>
      </trkpt>
      <trkpt lat="45.80297" lon="6.14158">
        <ele>686.518799</ele>
        <time>2011-01-14T15:56:28Z</time>
      </trkpt>
      <trkpt lat="45.8029" lon="6.14163">
        <ele>686.999268</ele>
        <time>2011-01-14T15:56:33Z</time>
      </trkpt>
      <trkpt lat="45.8028" lon="6.14172">
        <ele>688.441406</ele>
        <time>2011-01-14T15:56:43Z</time>
      </trkpt>
      <trkpt lat="45.80266" lon="6.14175">
        <ele>689.402588</ele>
        <time>2011-01-14T15:56:53Z</time>
      </trkpt>
      <trkpt lat="45.80254" lon="6.14176">
        <ele>690.364014</ele>
        <time>2011-01-14T15:57:02Z</time>
      </trkpt>
      <trkpt lat="45.80243" lon="6.14173">
        <ele>690.844482</ele>
        <time>2011-01-14T15:57:10Z</time>
      </trkpt>
      <trkpt lat="45.80236" lon="6.14166">
        <ele>690.844482</ele>
        <time>2011-01-14T15:57:18Z</time>
      </trkpt>
      <trkpt lat="45.80228" lon="6.14159">
        <ele>691.805908</ele>
        <time>2011-01-14T15:57:26Z</time>
      </trkpt>
      <trkpt lat="45.80225" lon="6.14157">
        <ele>692.767334</ele>
        <time>2011-01-14T15:57:29Z</time>
      </trkpt>
      <trkpt lat="45.80218" lon="6.14157">
        <ele>694.209229</ele>
        <time>2011-01-14T15:57:37Z</time>
      </trkpt>
      <trkpt lat="45.80207" lon="6.1416">
        <ele>696.131836</ele>
        <time>2011-01-14T15:57:46Z</time>
      </trkpt>
      <trkpt lat="45.80201" lon="6.14161">
        <ele>696.131836</ele>
        <time>2011-01-14T15:57:52Z</time>
      </trkpt>
      <trkpt lat="45.80195" lon="6.14164">
        <ele>696.612549</ele>
        <time>2011-01-14T15:57:59Z</time>
      </trkpt>
      <trkpt lat="45.80185" lon="6.14169">
        <ele>697.57373</ele>
        <time>2011-01-14T15:58:08Z</time>
      </trkpt>
      <trkpt lat="45.80177" lon="6.14172">
        <ele>697.57373</ele>
        <time>2011-01-14T15:58:15Z</time>
      </trkpt>
      <trkpt lat="45.80167" lon="6.14176">
        <ele>699.015625</ele>
        <time>2011-01-14T15:58:23Z</time>
      </trkpt>
      <trkpt lat="45.80157" lon="6.14182">
        <ele>700.458008</ele>
        <time>2011-01-14T15:58:32Z</time>
      </trkpt>
      <trkpt lat="45.80146" lon="6.14182">
        <ele>700.458008</ele>
        <time>2011-01-14T15:58:39Z</time>
      </trkpt>
      <trkpt lat="45.80133" lon="6.14183">
        <ele>701.419189</ele>
        <time>2011-01-14T15:58:48Z</time>
      </trkpt>
      <trkpt lat="45.80121" lon="6.14186">
        <ele>702.380371</ele>
        <time>2011-01-14T15:58:55Z</time>
      </trkpt>
      <trkpt lat="45.80109" lon="6.14182">
        <ele>703.82251</ele>
        <time>2011-01-14T15:59:05Z</time>
      </trkpt>
      <trkpt lat="45.80101" lon="6.14179">
        <ele>702.861084</ele>
        <time>2011-01-14T15:59:12Z</time>
      </trkpt>
      <trkpt lat="45.80088" lon="6.1418">
        <ele>700.938477</ele>
        <time>2011-01-14T15:59:20Z</time>
      </trkpt>
      <trkpt lat="45.80085" lon="6.1418">
        <ele>699.977051</ele>
        <time>2011-01-14T15:59:23Z</time>
      </trkpt>
      <trkpt lat="45.80079" lon="6.14174">
        <ele>698.054443</ele>
        <time>2011-01-14T15:59:31Z</time>
      </trkpt>
      <trkpt lat="45.80072" lon="6.14161">
        <ele>696.131836</ele>
        <time>2011-01-14T15:59:39Z</time>
      </trkpt>
      <trkpt lat="45.80072" lon="6.1415">
        <ele>694.209229</ele>
        <time>2011-01-14T15:59:44Z</time>
      </trkpt>
      <trkpt lat="45.8007" lon="6.14142">
        <ele>692.767334</ele>
        <time>2011-01-14T15:59:48Z</time>
      </trkpt>
      <trkpt lat="45.80067" lon="6.1413">
        <ele>691.805908</ele>
        <time>2011-01-14T15:59:55Z</time>
      </trkpt>
      <trkpt lat="45.8006" lon="6.14118">
        <ele>690.364014</ele>
        <time>2011-01-14T16:00:03Z</time>
      </trkpt>
      <trkpt lat="45.80052" lon="6.14116">
        <ele>689.883301</ele>
        <time>2011-01-14T16:00:10Z</time>
      </trkpt>
      <trkpt lat="45.80046" lon="6.14114">
        <ele>689.883301</ele>
        <time>2011-01-14T16:00:15Z</time>
      </trkpt>
      <trkpt lat="45.80034" lon="6.14114">
        <ele>691.325195</ele>
        <time>2011-01-14T16:00:24Z</time>
      </trkpt>
      <trkpt lat="45.80029" lon="6.14109">
        <ele>693.728516</ele>
        <time>2011-01-14T16:00:33Z</time>
      </trkpt>
      <trkpt lat="45.80025" lon="6.14113">
        <ele>695.651123</ele>
        <time>2011-01-14T16:00:41Z</time>
      </trkpt>
      <trkpt lat="45.80015" lon="6.14114">
        <ele>698.054443</ele>
        <time>2011-01-14T16:00:50Z</time>
      </trkpt>
      <trkpt lat="45.80006" lon="6.14109">
        <ele>701.419189</ele>
        <time>2011-01-14T16:00:59Z</time>
      </trkpt>
      <trkpt lat="45.80003" lon="6.14102">
        <ele>701.419189</ele>
        <time>2011-01-14T16:01:05Z</time>
      </trkpt>
      <trkpt lat="45.79998" lon="6.14086">
        <ele>701.899902</ele>
        <time>2011-01-14T16:01:14Z</time>
      </trkpt>
      <trkpt lat="45.79997" lon="6.14084">
        <ele>701.419189</ele>
        <time>2011-01-14T16:01:15Z</time>
      </trkpt>
      <trkpt lat="45.79989" lon="6.14077">
        <ele>700.938477</ele>
        <time>2011-01-14T16:01:23Z</time>
      </trkpt>
      <trkpt lat="45.79988" lon="6.14076">
        <ele>700.938477</ele>
        <time>2011-01-14T16:01:24Z</time>
      </trkpt>
      <trkpt lat="45.79975" lon="6.14077">
        <ele>698.534912</ele>
        <time>2011-01-14T16:01:34Z</time>
      </trkpt>
      <trkpt lat="45.79968" lon="6.14076">
        <ele>698.054443</ele>
        <time>2011-01-14T16:01:39Z</time>
      </trkpt>
      <trkpt lat="45.79958" lon="6.14069">
        <ele>695.651123</ele>
        <time>2011-01-14T16:01:49Z</time>
      </trkpt>
      <trkpt lat="45.79951" lon="6.14068">
        <ele>695.17041</ele>
        <time>2011-01-14T16:01:55Z</time>
      </trkpt>
      <trkpt lat="45.79945" lon="6.14068">
        <ele>693.728516</ele>
        <time>2011-01-14T16:02:00Z</time>
      </trkpt>
      <trkpt lat="45.79944" lon="6.14066">
        <ele>694.209229</ele>
        <time>2011-01-14T16:02:02Z</time>
      </trkpt>
      <trkpt lat="45.79933" lon="6.14065">
        <ele>695.17041</ele>
        <time>2011-01-14T16:02:09Z</time>
      </trkpt>
      <trkpt lat="45.7993" lon="6.14065">
        <ele>695.17041</ele>
        <time>2011-01-14T16:02:12Z</time>
      </trkpt>
      <trkpt lat="45.79927" lon="6.14067">
        <ele>695.17041</ele>
        <time>2011-01-14T16:02:14Z</time>
      </trkpt>
      <trkpt lat="45.7992" lon="6.1407">
        <ele>696.612549</ele>
        <time>2011-01-14T16:02:22Z</time>
      </trkpt>
      <trkpt lat="45.79904" lon="6.14068">
        <ele>698.054443</ele>
        <time>2011-01-14T16:02:32Z</time>
      </trkpt>
      <trkpt lat="45.79898" lon="6.14068">
        <ele>699.015625</ele>
        <time>2011-01-14T16:02:39Z</time>
      </trkpt>
      <trkpt lat="45.79898" lon="6.1407">
        <ele>698.534912</ele>
        <time>2011-01-14T16:02:41Z</time>
      </trkpt>
      <trkpt lat="45.79896" lon="6.14076">
        <ele>699.496338</ele>
        <time>2011-01-14T16:02:45Z</time>
      </trkpt>
      <trkpt lat="45.79895" lon="6.14097">
        <ele>699.496338</ele>
        <time>2011-01-14T16:02:56Z</time>
      </trkpt>
      <trkpt lat="45.79894" lon="6.14101">
        <ele>699.496338</ele>
        <time>2011-01-14T16:02:58Z</time>
      </trkpt>
      <trkpt lat="45.79892" lon="6.1412">
        <ele>700.938477</ele>
        <time>2011-01-14T16:03:07Z</time>
      </trkpt>
      <trkpt lat="45.79888" lon="6.14134">
        <ele>700.938477</ele>
        <time>2011-01-14T16:03:16Z</time>
      </trkpt>
      <trkpt lat="45.79883" lon="6.14147">
        <ele>702.861084</ele>
        <time>2011-01-14T16:03:23Z</time>
      </trkpt>
      <trkpt lat="45.79883" lon="6.14148">
        <ele>702.861084</ele>
        <time>2011-01-14T16:03:24Z</time>
      </trkpt>
      <trkpt lat="45.7988" lon="6.14155">
        <ele>702.861084</ele>
        <time>2011-01-14T16:03:29Z</time>
      </trkpt>
      <trkpt lat="45.79869" lon="6.14161">
        <ele>702.380371</ele>
        <time>2011-01-14T16:03:37Z</time>
      </trkpt>
      <trkpt lat="45.79859" lon="6.14164">
        <ele>702.861084</ele>
        <time>2011-01-14T16:03:45Z</time>
      </trkpt>
      <trkpt lat="45.79852" lon="6.14163">
        <ele>702.861084</ele>
        <time>2011-01-14T16:03:52Z</time>
      </trkpt>
      <trkpt lat="45.79843" lon="6.14162">
        <ele>702.380371</ele>
        <time>2011-01-14T16:03:59Z</time>
      </trkpt>
      <trkpt lat="45.79829" lon="6.14161">
        <ele>701.899902</ele>
        <time>2011-01-14T16:04:07Z</time>
      </trkpt>
      <trkpt lat="45.79824" lon="6.1416">
        <ele>700.938477</ele>
        <time>2011-01-14T16:04:12Z</time>
      </trkpt>
      <trkpt lat="45.79818" lon="6.14165">
        <ele>699.015625</ele>
        <time>2011-01-14T16:04:19Z</time>
      </trkpt>
      <trkpt lat="45.79811" lon="6.14167">
        <ele>697.093018</ele>
        <time>2011-01-14T16:04:28Z</time>
      </trkpt>
      <trkpt lat="45.79804" lon="6.14168">
        <ele>695.17041</ele>
        <time>2011-01-14T16:04:34Z</time>
      </trkpt>
      <trkpt lat="45.79795" lon="6.14161">
        <ele>693.728516</ele>
        <time>2011-01-14T16:04:42Z</time>
      </trkpt>
      <trkpt lat="45.7979" lon="6.14158">
        <ele>692.286621</ele>
        <time>2011-01-14T16:04:48Z</time>
      </trkpt>
      <trkpt lat="45.79786" lon="6.14157">
        <ele>692.286621</ele>
        <time>2011-01-14T16:04:59Z</time>
      </trkpt>
      <trkpt lat="45.79786" lon="6.14155">
        <ele>693.728516</ele>
        <time>2011-01-14T16:05:07Z</time>
      </trkpt>
      <trkpt lat="45.79781" lon="6.14152">
        <ele>693.247803</ele>
        <time>2011-01-14T16:05:17Z</time>
      </trkpt>
      <trkpt lat="45.79776" lon="6.1415">
        <ele>691.805908</ele>
        <time>2011-01-14T16:05:24Z</time>
      </trkpt>
      <trkpt lat="45.79774" lon="6.1415">
        <ele>691.805908</ele>
        <time>2011-01-14T16:05:26Z</time>
      </trkpt>
      <trkpt lat="45.7977" lon="6.14153">
        <ele>690.844482</ele>
        <time>2011-01-14T16:05:34Z</time>
      </trkpt>
      <trkpt lat="45.7977" lon="6.14154">
        <ele>688.922119</ele>
        <time>2011-01-14T16:05:38Z</time>
      </trkpt>
      <trkpt lat="45.7977" lon="6.14163">
        <ele>687.960693</ele>
        <time>2011-01-14T16:05:46Z</time>
      </trkpt>
      <trkpt lat="45.79767" lon="6.14169">
        <ele>686.518799</ele>
        <time>2011-01-14T16:05:53Z</time>
      </trkpt>
      <trkpt lat="45.79765" lon="6.14171">
        <ele>686.038086</ele>
        <time>2011-01-14T16:05:55Z</time>
      </trkpt>
      <trkpt lat="45.79757" lon="6.14173">
        <ele>684.596191</ele>
        <time>2011-01-14T16:06:02Z</time>
      </trkpt>
      <trkpt lat="45.79751" lon="6.14172">
        <ele>682.192627</ele>
        <time>2011-01-14T16:06:09Z</time>
      </trkpt>
      <trkpt lat="45.79744" lon="6.1417">
        <ele>680.27002</ele>
        <time>2011-01-14T16:06:16Z</time>
      </trkpt>
      <trkpt lat="45.79733" lon="6.14177">
        <ele>679.308594</ele>
        <time>2011-01-14T16:06:24Z</time>
      </trkpt>
      <trkpt lat="45.79733" lon="6.1418">
        <ele>679.789307</ele>
        <time>2011-01-14T16:06:33Z</time>
      </trkpt>
      <trkpt lat="45.7973" lon="6.1419">
        <ele>681.231445</ele>
        <time>2011-01-14T16:06:42Z</time>
      </trkpt>
      <trkpt lat="45.7973" lon="6.14199">
        <ele>679.308594</ele>
        <time>2011-01-14T16:06:50Z</time>
      </trkpt>
      <trkpt lat="45.79734" lon="6.14213">
        <ele>678.347412</ele>
        <time>2011-01-14T16:07:00Z</time>
      </trkpt>
      <trkpt lat="45.79735" lon="6.14224">
        <ele>676.905518</ele>
        <time>2011-01-14T16:07:08Z</time>
      </trkpt>
      <trkpt lat="45.79735" lon="6.14235">
        <ele>674.98291</ele>
        <time>2011-01-14T16:07:17Z</time>
      </trkpt>
      <trkpt lat="45.79736" lon="6.14247">
        <ele>673.541016</ele>
        <time>2011-01-14T16:07:26Z</time>
      </trkpt>
      <trkpt lat="45.79726" lon="6.14266">
        <ele>672.098877</ele>
        <time>2011-01-14T16:07:35Z</time>
      </trkpt>
      <trkpt lat="45.79719" lon="6.14271">
        <ele>669.695801</ele>
        <time>2011-01-14T16:07:41Z</time>
      </trkpt>
      <trkpt lat="45.79711" lon="6.14275">
        <ele>669.215088</ele>
        <time>2011-01-14T16:07:48Z</time>
      </trkpt>
      <trkpt lat="45.79708" lon="6.14276">
        <ele>667.292236</ele>
        <time>2011-01-14T16:07:51Z</time>
      </trkpt>
      <trkpt lat="45.79701" lon="6.14276">
        <ele>664.888916</ele>
        <time>2011-01-14T16:07:59Z</time>
      </trkpt>
      <trkpt lat="45.79696" lon="6.14278">
        <ele>662.005127</ele>
        <time>2011-01-14T16:08:08Z</time>
      </trkpt>
      <trkpt lat="45.79687" lon="6.1428">
        <ele>659.121094</ele>
        <time>2011-01-14T16:08:18Z</time>
      </trkpt>
      <trkpt lat="45.79676" lon="6.14284">
        <ele>657.679199</ele>
        <time>2011-01-14T16:08:26Z</time>
      </trkpt>
      <trkpt lat="45.79668" lon="6.14282">
        <ele>656.717773</ele>
        <time>2011-01-14T16:08:33Z</time>
      </trkpt>
      <trkpt lat="45.79658" lon="6.14276">
        <ele>656.717773</ele>
        <time>2011-01-14T16:08:41Z</time>
      </trkpt>
      <trkpt lat="45.79648" lon="6.14272">
        <ele>656.717773</ele>
        <time>2011-01-14T16:08:48Z</time>
      </trkpt>
      <trkpt lat="45.79642" lon="6.14268">
        <ele>656.717773</ele>
        <time>2011-01-14T16:08:55Z</time>
      </trkpt>
      <trkpt lat="45.79633" lon="6.14268">
        <ele>657.198486</ele>
        <time>2011-01-14T16:09:05Z</time>
      </trkpt>
      <trkpt lat="45.79626" lon="6.14265">
        <ele>659.121094</ele>
        <time>2011-01-14T16:09:14Z</time>
      </trkpt>
      <trkpt lat="45.79621" lon="6.14261">
        <ele>661.524414</ele>
        <time>2011-01-14T16:09:22Z</time>
      </trkpt>
      <trkpt lat="45.79612" lon="6.14256">
        <ele>663.447021</ele>
        <time>2011-01-14T16:09:30Z</time>
      </trkpt>
      <trkpt lat="45.79607" lon="6.14259">
        <ele>665.369629</ele>
        <time>2011-01-14T16:09:37Z</time>
      </trkpt>
      <trkpt lat="45.79606" lon="6.14265">
        <ele>667.772705</ele>
        <time>2011-01-14T16:09:45Z</time>
      </trkpt>
      <trkpt lat="45.79599" lon="6.14263">
        <ele>669.215088</ele>
        <time>2011-01-14T16:09:53Z</time>
      </trkpt>
      <trkpt lat="45.79598" lon="6.14263">
        <ele>669.695801</ele>
        <time>2011-01-14T16:09:54Z</time>
      </trkpt>
      <trkpt lat="45.79588" lon="6.14262">
        <ele>671.618164</ele>
        <time>2011-01-14T16:10:03Z</time>
      </trkpt>
      <trkpt lat="45.7958" lon="6.14267">
        <ele>674.502197</ele>
        <time>2011-01-14T16:10:11Z</time>
      </trkpt>
      <trkpt lat="45.79571" lon="6.14272">
        <ele>675.944092</ele>
        <time>2011-01-14T16:10:19Z</time>
      </trkpt>
      <trkpt lat="45.79564" lon="6.14273">
        <ele>677.38623</ele>
        <time>2011-01-14T16:10:26Z</time>
      </trkpt>
      <trkpt lat="45.79559" lon="6.14277">
        <ele>678.347412</ele>
        <time>2011-01-14T16:10:32Z</time>
      </trkpt>
      <trkpt lat="45.79554" lon="6.14284">
        <ele>681.231445</ele>
        <time>2011-01-14T16:10:38Z</time>
      </trkpt>
      <trkpt lat="45.79547" lon="6.14293">
        <ele>682.67334</ele>
        <time>2011-01-14T16:10:46Z</time>
      </trkpt>
      <trkpt lat="45.79546" lon="6.14302">
        <ele>684.115479</ele>
        <time>2011-01-14T16:10:53Z</time>
      </trkpt>
      <trkpt lat="45.79543" lon="6.14319">
        <ele>686.518799</ele>
        <time>2011-01-14T16:11:02Z</time>
      </trkpt>
      <trkpt lat="45.79542" lon="6.1433">
        <ele>688.441406</ele>
        <time>2011-01-14T16:11:09Z</time>
      </trkpt>
      <trkpt lat="45.79536" lon="6.14337">
        <ele>689.402588</ele>
        <time>2011-01-14T16:11:15Z</time>
      </trkpt>
      <trkpt lat="45.79528" lon="6.14344">
        <ele>691.805908</ele>
        <time>2011-01-14T16:11:23Z</time>
      </trkpt>
      <trkpt lat="45.79526" lon="6.14354">
        <ele>693.247803</ele>
        <time>2011-01-14T16:11:31Z</time>
      </trkpt>
      <trkpt lat="45.79525" lon="6.14357">
        <ele>694.209229</ele>
        <time>2011-01-14T16:11:33Z</time>
      </trkpt>
      <trkpt lat="45.79524" lon="6.14364">
        <ele>694.689697</ele>
        <time>2011-01-14T16:11:37Z</time>
      </trkpt>
      <trkpt lat="45.79524" lon="6.14368">
        <ele>695.651123</ele>
        <time>2011-01-14T16:11:39Z</time>
      </trkpt>
      <trkpt lat="45.79527" lon="6.14379">
        <ele>697.57373</ele>
        <time>2011-01-14T16:11:48Z</time>
      </trkpt>
      <trkpt lat="45.79539" lon="6.1438">
        <ele>698.054443</ele>
        <time>2011-01-14T16:11:57Z</time>
      </trkpt>
      <trkpt lat="45.79543" lon="6.14382">
        <ele>699.015625</ele>
        <time>2011-01-14T16:12:04Z</time>
      </trkpt>
      <trkpt lat="45.79548" lon="6.14384">
        <ele>700.938477</ele>
        <time>2011-01-14T16:12:11Z</time>
      </trkpt>
      <trkpt lat="45.79555" lon="6.14384">
        <ele>703.341797</ele>
        <time>2011-01-14T16:12:19Z</time>
      </trkpt>
      <trkpt lat="45.79561" lon="6.14384">
        <ele>703.82251</ele>
        <time>2011-01-14T16:12:25Z</time>
      </trkpt>
      <trkpt lat="45.79574" lon="6.14382">
        <ele>706.225586</ele>
        <time>2011-01-14T16:12:33Z</time>
      </trkpt>
      <trkpt lat="45.79582" lon="6.14387">
        <ele>708.148438</ele>
        <time>2011-01-14T16:12:40Z</time>
      </trkpt>
      <trkpt lat="45.79595" lon="6.14396">
        <ele>709.109619</ele>
        <time>2011-01-14T16:12:49Z</time>
      </trkpt>
      <trkpt lat="45.79598" lon="6.14397">
        <ele>709.590332</ele>
        <time>2011-01-14T16:12:51Z</time>
      </trkpt>
      <trkpt lat="45.79604" lon="6.14399">
        <ele>711.032227</ele>
        <time>2011-01-14T16:12:55Z</time>
      </trkpt>
      <trkpt lat="45.79613" lon="6.14403">
        <ele>711.993652</ele>
        <time>2011-01-14T16:13:03Z</time>
      </trkpt>
      <trkpt lat="45.79624" lon="6.1441">
        <ele>713.435547</ele>
        <time>2011-01-14T16:13:12Z</time>
      </trkpt>
      <trkpt lat="45.79631" lon="6.14422">
        <ele>715.838867</ele>
        <time>2011-01-14T16:13:21Z</time>
      </trkpt>
      <trkpt lat="45.79637" lon="6.14438">
        <ele>717.281006</ele>
        <time>2011-01-14T16:13:30Z</time>
      </trkpt>
      <trkpt lat="45.79638" lon="6.14441">
        <ele>718.7229</ele>
        <time>2011-01-14T16:13:32Z</time>
      </trkpt>
      <trkpt lat="45.79644" lon="6.1446">
        <ele>719.203613</ele>
        <time>2011-01-14T16:13:42Z</time>
      </trkpt>
      <trkpt lat="45.79646" lon="6.14465">
        <ele>719.684326</ele>
        <time>2011-01-14T16:13:46Z</time>
      </trkpt>
      <trkpt lat="45.79647" lon="6.14492">
        <ele>722.087402</ele>
        <time>2011-01-14T16:13:59Z</time>
      </trkpt>
      <trkpt lat="45.79643" lon="6.14517">
        <ele>724.01001</ele>
        <time>2011-01-14T16:14:13Z</time>
      </trkpt>
      <trkpt lat="45.7964" lon="6.14536">
        <ele>724.01001</ele>
        <time>2011-01-14T16:14:24Z</time>
      </trkpt>
      <trkpt lat="45.79636" lon="6.14561">
        <ele>724.490723</ele>
        <time>2011-01-14T16:14:38Z</time>
      </trkpt>
      <trkpt lat="45.79633" lon="6.1458">
        <ele>724.490723</ele>
        <time>2011-01-14T16:14:50Z</time>
      </trkpt>
      <trkpt lat="45.79631" lon="6.14598">
        <ele>724.971436</ele>
        <time>2011-01-14T16:15:02Z</time>
      </trkpt>
      <trkpt lat="45.79631" lon="6.14603">
        <ele>724.490723</ele>
        <time>2011-01-14T16:15:12Z</time>
      </trkpt>
      <trkpt lat="45.79631" lon="6.14622">
        <ele>724.01001</ele>
        <time>2011-01-14T16:15:26Z</time>
      </trkpt>
      <trkpt lat="45.79632" lon="6.1463">
        <ele>723.529541</ele>
        <time>2011-01-14T16:15:35Z</time>
      </trkpt>
      <trkpt lat="45.79632" lon="6.1464">
        <ele>723.048828</ele>
        <time>2011-01-14T16:16:59Z</time>
      </trkpt>
      <trkpt lat="45.79635" lon="6.14655">
        <ele>723.048828</ele>
        <time>2011-01-14T16:17:09Z</time>
      </trkpt>
      <trkpt lat="45.79637" lon="6.14671">
        <ele>722.568115</ele>
        <time>2011-01-14T16:17:19Z</time>
      </trkpt>
      <trkpt lat="45.79636" lon="6.14675">
        <ele>722.568115</ele>
        <time>2011-01-14T16:17:22Z</time>
      </trkpt>
      <trkpt lat="45.79633" lon="6.14692">
        <ele>722.568115</ele>
        <time>2011-01-14T16:17:32Z</time>
      </trkpt>
      <trkpt lat="45.79626" lon="6.14704">
        <ele>723.048828</ele>
        <time>2011-01-14T16:17:43Z</time>
      </trkpt>
      <trkpt lat="45.79625" lon="6.14711">
        <ele>723.048828</ele>
        <time>2011-01-14T16:17:50Z</time>
      </trkpt>
      <trkpt lat="45.79623" lon="6.14719">
        <ele>723.048828</ele>
        <time>2011-01-14T16:17:57Z</time>
      </trkpt>
      <trkpt lat="45.79617" lon="6.14735">
        <ele>723.529541</ele>
        <time>2011-01-14T16:18:08Z</time>
      </trkpt>
      <trkpt lat="45.79614" lon="6.14748">
        <ele>724.490723</ele>
        <time>2011-01-14T16:18:16Z</time>
      </trkpt>
      <trkpt lat="45.79613" lon="6.14759">
        <ele>725.451904</ele>
        <time>2011-01-14T16:18:23Z</time>
      </trkpt>
      <trkpt lat="45.79617" lon="6.14775">
        <ele>727.374756</ele>
        <time>2011-01-14T16:18:33Z</time>
      </trkpt>
      <trkpt lat="45.79626" lon="6.14792">
        <ele>728.335938</ele>
        <time>2011-01-14T16:18:44Z</time>
      </trkpt>
      <trkpt lat="45.79632" lon="6.14799">
        <ele>728.335938</ele>
        <time>2011-01-14T16:18:52Z</time>
      </trkpt>
      <trkpt lat="45.7963" lon="6.14802">
        <ele>728.335938</ele>
        <time>2011-01-14T16:19:02Z</time>
      </trkpt>
      <trkpt lat="45.79635" lon="6.14803">
        <ele>728.335938</ele>
        <time>2011-01-14T16:19:26Z</time>
      </trkpt>
      <trkpt lat="45.79646" lon="6.148">
        <ele>726.41333</ele>
        <time>2011-01-14T16:19:37Z</time>
      </trkpt>
      <trkpt lat="45.79658" lon="6.14794">
        <ele>726.41333</ele>
        <time>2011-01-14T16:19:47Z</time>
      </trkpt>
      <trkpt lat="45.79664" lon="6.14791">
        <ele>725.451904</ele>
        <time>2011-01-14T16:19:56Z</time>
      </trkpt>
      <trkpt lat="45.7968" lon="6.14784">
        <ele>724.971436</ele>
        <time>2011-01-14T16:20:21Z</time>
      </trkpt>
      <trkpt lat="45.79688" lon="6.14783">
        <ele>724.971436</ele>
        <time>2011-01-14T16:20:28Z</time>
      </trkpt>
      <trkpt lat="45.797" lon="6.1478">
        <ele>724.490723</ele>
        <time>2011-01-14T16:20:38Z</time>
      </trkpt>
      <trkpt lat="45.79715" lon="6.14775">
        <ele>723.529541</ele>
        <time>2011-01-14T16:20:50Z</time>
      </trkpt>
      <trkpt lat="45.79735" lon="6.14774">
        <ele>721.606689</ele>
        <time>2011-01-14T16:21:04Z</time>
      </trkpt>
      <trkpt lat="45.79753" lon="6.14782">
        <ele>720.645508</ele>
        <time>2011-01-14T16:21:17Z</time>
      </trkpt>
      <trkpt lat="45.79769" lon="6.14792">
        <ele>720.164795</ele>
        <time>2011-01-14T16:21:30Z</time>
      </trkpt>
      <trkpt lat="45.79787" lon="6.14803">
        <ele>719.203613</ele>
        <time>2011-01-14T16:21:44Z</time>
      </trkpt>
      <trkpt lat="45.79806" lon="6.14814">
        <ele>719.203613</ele>
        <time>2011-01-14T16:21:58Z</time>
      </trkpt>
      <trkpt lat="45.79825" lon="6.14812">
        <ele>717.761475</ele>
        <time>2011-01-14T16:22:11Z</time>
      </trkpt>
      <trkpt lat="45.79842" lon="6.14802">
        <ele>716.800293</ele>
        <time>2011-01-14T16:22:24Z</time>
      </trkpt>
      <trkpt lat="45.79858" lon="6.14788">
        <ele>716.800293</ele>
        <time>2011-01-14T16:22:37Z</time>
      </trkpt>
      <trkpt lat="45.79871" lon="6.14776">
        <ele>716.31958</ele>
        <time>2011-01-14T16:22:48Z</time>
      </trkpt>
      <trkpt lat="45.79885" lon="6.14758">
        <ele>714.877441</ele>
        <time>2011-01-14T16:23:01Z</time>
      </trkpt>
      <trkpt lat="45.79898" lon="6.14738">
        <ele>713.916016</ele>
        <time>2011-01-14T16:23:14Z</time>
      </trkpt>
      <trkpt lat="45.79913" lon="6.14719">
        <ele>711.512939</ele>
        <time>2011-01-14T16:23:28Z</time>
      </trkpt>
      <trkpt lat="45.79928" lon="6.1471">
        <ele>709.109619</ele>
        <time>2011-01-14T16:23:40Z</time>
      </trkpt>
      <trkpt lat="45.79946" lon="6.14701">
        <ele>707.187012</ele>
        <time>2011-01-14T16:23:54Z</time>
      </trkpt>
      <trkpt lat="45.7996" lon="6.14692">
        <ele>705.264404</ele>
        <time>2011-01-14T16:24:06Z</time>
      </trkpt>
      <trkpt lat="45.79963" lon="6.14691">
        <ele>704.783691</ele>
        <time>2011-01-14T16:24:14Z</time>
      </trkpt>
      <trkpt lat="45.79971" lon="6.14688">
        <ele>703.341797</ele>
        <time>2011-01-14T16:24:33Z</time>
      </trkpt>
      <trkpt lat="45.79985" lon="6.1468">
        <ele>700.938477</ele>
        <time>2011-01-14T16:24:45Z</time>
      </trkpt>
      <trkpt lat="45.79994" lon="6.14668">
        <ele>699.496338</ele>
        <time>2011-01-14T16:24:55Z</time>
      </trkpt>
      <trkpt lat="45.79997" lon="6.1465">
        <ele>697.57373</ele>
        <time>2011-01-14T16:25:05Z</time>
      </trkpt>
      <trkpt lat="45.79991" lon="6.14633">
        <ele>695.651123</ele>
        <time>2011-01-14T16:25:16Z</time>
      </trkpt>
      <trkpt lat="45.79984" lon="6.14624">
        <ele>694.689697</ele>
        <time>2011-01-14T16:25:26Z</time>
      </trkpt>
      <trkpt lat="45.79983" lon="6.14621">
        <ele>694.689697</ele>
        <time>2011-01-14T16:25:46Z</time>
      </trkpt>
      <trkpt lat="45.7998" lon="6.14617">
        <ele>693.247803</ele>
        <time>2011-01-14T16:26:16Z</time>
      </trkpt>
      <trkpt lat="45.79972" lon="6.14609">
        <ele>692.767334</ele>
        <time>2011-01-14T16:26:26Z</time>
      </trkpt>
      <trkpt lat="45.7996" lon="6.14598">
        <ele>691.805908</ele>
        <time>2011-01-14T16:26:37Z</time>
      </trkpt>
      <trkpt lat="45.79946" lon="6.14588">
        <ele>690.844482</ele>
        <time>2011-01-14T16:26:48Z</time>
      </trkpt>
      <trkpt lat="45.79928" lon="6.14576">
        <ele>689.883301</ele>
        <time>2011-01-14T16:27:02Z</time>
      </trkpt>
      <trkpt lat="45.79916" lon="6.1457">
        <ele>687.960693</ele>
        <time>2011-01-14T16:27:11Z</time>
      </trkpt>
      <trkpt lat="45.79893" lon="6.1456">
        <ele>686.038086</ele>
        <time>2011-01-14T16:27:27Z</time>
      </trkpt>
      <trkpt lat="45.79885" lon="6.14556">
        <ele>684.596191</ele>
        <time>2011-01-14T16:27:35Z</time>
      </trkpt>
      <trkpt lat="45.79879" lon="6.14545">
        <ele>683.634521</ele>
        <time>2011-01-14T16:27:44Z</time>
      </trkpt>
      <trkpt lat="45.79879" lon="6.14542">
        <ele>683.634521</ele>
        <time>2011-01-14T16:27:46Z</time>
      </trkpt>
      <trkpt lat="45.79889" lon="6.14531">
        <ele>681.231445</ele>
        <time>2011-01-14T16:27:56Z</time>
      </trkpt>
      <trkpt lat="45.79897" lon="6.1453">
        <ele>680.27002</ele>
        <time>2011-01-14T16:28:03Z</time>
      </trkpt>
      <trkpt lat="45.79907" lon="6.14528">
        <ele>678.828125</ele>
        <time>2011-01-14T16:28:12Z</time>
      </trkpt>
      <trkpt lat="45.79916" lon="6.14528">
        <ele>678.347412</ele>
        <time>2011-01-14T16:28:19Z</time>
      </trkpt>
      <trkpt lat="45.79929" lon="6.14532">
        <ele>677.38623</ele>
        <time>2011-01-14T16:28:28Z</time>
      </trkpt>
      <trkpt lat="45.79937" lon="6.14534">
        <ele>676.905518</ele>
        <time>2011-01-14T16:28:34Z</time>
      </trkpt>
      <trkpt lat="45.79943" lon="6.14536">
        <ele>675.944092</ele>
        <time>2011-01-14T16:28:38Z</time>
      </trkpt>
      <trkpt lat="45.79953" lon="6.14538">
        <ele>674.98291</ele>
        <time>2011-01-14T16:28:47Z</time>
      </trkpt>
      <trkpt lat="45.79959" lon="6.14543">
        <ele>674.502197</ele>
        <time>2011-01-14T16:28:53Z</time>
      </trkpt>
      <trkpt lat="45.79973" lon="6.14544">
        <ele>672.57959</ele>
        <time>2011-01-14T16:29:03Z</time>
      </trkpt>
      <trkpt lat="45.79986" lon="6.14548">
        <ele>670.656982</ele>
        <time>2011-01-14T16:29:12Z</time>
      </trkpt>
      <trkpt lat="45.80003" lon="6.14549">
        <ele>669.215088</ele>
        <time>2011-01-14T16:29:23Z</time>
      </trkpt>
      <trkpt lat="45.80019" lon="6.14549">
        <ele>667.772705</ele>
        <time>2011-01-14T16:29:33Z</time>
      </trkpt>
      <trkpt lat="45.80037" lon="6.14548">
        <ele>665.850342</ele>
        <time>2011-01-14T16:29:44Z</time>
      </trkpt>
      <trkpt lat="45.80045" lon="6.14547">
        <ele>663.92749</ele>
        <time>2011-01-14T16:29:50Z</time>
      </trkpt>
      <trkpt lat="45.80058" lon="6.14548">
        <ele>663.447021</ele>
        <time>2011-01-14T16:29:59Z</time>
      </trkpt>
      <trkpt lat="45.80071" lon="6.14547">
        <ele>661.524414</ele>
        <time>2011-01-14T16:30:08Z</time>
      </trkpt>
      <trkpt lat="45.80073" lon="6.14547">
        <ele>661.524414</ele>
        <time>2011-01-14T16:30:10Z</time>
      </trkpt>
      <trkpt lat="45.80087" lon="6.14548">
        <ele>659.121094</ele>
        <time>2011-01-14T16:30:19Z</time>
      </trkpt>
      <trkpt lat="45.801" lon="6.14551">
        <ele>657.198486</ele>
        <time>2011-01-14T16:30:28Z</time>
      </trkpt>
      <trkpt lat="45.80113" lon="6.14554">
        <ele>655.275879</ele>
        <time>2011-01-14T16:30:38Z</time>
      </trkpt>
      <trkpt lat="45.8012" lon="6.14555">
        <ele>653.353271</ele>
        <time>2011-01-14T16:30:43Z</time>
      </trkpt>
      <trkpt lat="45.80131" lon="6.14558">
        <ele>651.911133</ele>
        <time>2011-01-14T16:30:52Z</time>
      </trkpt>
      <trkpt lat="45.80138" lon="6.1456">
        <ele>649.988525</ele>
        <time>2011-01-14T16:30:58Z</time>
      </trkpt>
      <trkpt lat="45.80152" lon="6.14565">
        <ele>648.546387</ele>
        <time>2011-01-14T16:31:07Z</time>
      </trkpt>
      <trkpt lat="45.80153" lon="6.14564">
        <ele>648.546387</ele>
        <time>2011-01-14T16:31:08Z</time>
      </trkpt>
      <trkpt lat="45.80162" lon="6.14564">
        <ele>647.585205</ele>
        <time>2011-01-14T16:31:15Z</time>
      </trkpt>
      <trkpt lat="45.80175" lon="6.14567">
        <ele>643.73999</ele>
        <time>2011-01-14T16:31:24Z</time>
      </trkpt>
      <trkpt lat="45.80186" lon="6.14568">
        <ele>642.778809</ele>
        <time>2011-01-14T16:31:31Z</time>
      </trkpt>
      <trkpt lat="45.80196" lon="6.14571">
        <ele>641.33667</ele>
        <time>2011-01-14T16:31:38Z</time>
      </trkpt>
      <trkpt lat="45.80204" lon="6.14573">
        <ele>640.375488</ele>
        <time>2011-01-14T16:31:44Z</time>
      </trkpt>
      <trkpt lat="45.80213" lon="6.14573">
        <ele>638.452881</ele>
        <time>2011-01-14T16:31:51Z</time>
      </trkpt>
      <trkpt lat="45.80222" lon="6.14579">
        <ele>637.491455</ele>
        <time>2011-01-14T16:32:00Z</time>
      </trkpt>
      <trkpt lat="45.80225" lon="6.14581">
        <ele>637.491455</ele>
        <time>2011-01-14T16:32:03Z</time>
      </trkpt>
      <trkpt lat="45.80225" lon="6.14589">
        <ele>636.530273</ele>
        <time>2011-01-14T16:32:07Z</time>
      </trkpt>
      <trkpt lat="45.80223" lon="6.14611">
        <ele>634.607422</ele>
        <time>2011-01-14T16:32:17Z</time>
      </trkpt>
      <trkpt lat="45.80223" lon="6.14613">
        <ele>633.645996</ele>
        <time>2011-01-14T16:32:18Z</time>
      </trkpt>
      <trkpt lat="45.80223" lon="6.14618">
        <ele>633.645996</ele>
        <time>2011-01-14T16:32:21Z</time>
      </trkpt>
      <trkpt lat="45.80225" lon="6.1463">
        <ele>633.165283</ele>
        <time>2011-01-14T16:32:28Z</time>
      </trkpt>
      <trkpt lat="45.80227" lon="6.14639">
        <ele>633.165283</ele>
        <time>2011-01-14T16:32:33Z</time>
      </trkpt>
      <trkpt lat="45.80239" lon="6.14648">
        <ele>632.684814</ele>
        <time>2011-01-14T16:32:40Z</time>
      </trkpt>
      <trkpt lat="45.80255" lon="6.14651">
        <ele>633.165283</ele>
        <time>2011-01-14T16:32:49Z</time>
      </trkpt>
      <trkpt lat="45.80265" lon="6.14646">
        <ele>634.126709</ele>
        <time>2011-01-14T16:32:58Z</time>
      </trkpt>
      <trkpt lat="45.80279" lon="6.14638">
        <ele>634.607422</ele>
        <time>2011-01-14T16:33:10Z</time>
      </trkpt>
      <trkpt lat="45.80292" lon="6.1464">
        <ele>636.530273</ele>
        <time>2011-01-14T16:34:32Z</time>
      </trkpt>
      <trkpt lat="45.80302" lon="6.14644">
        <ele>637.010742</ele>
        <time>2011-01-14T16:34:42Z</time>
      </trkpt>
      <trkpt lat="45.80312" lon="6.14645">
        <ele>638.452881</ele>
        <time>2011-01-14T16:34:50Z</time>
      </trkpt>
      <trkpt lat="45.80325" lon="6.14647">
        <ele>639.414063</ele>
        <time>2011-01-14T16:35:02Z</time>
      </trkpt>
      <trkpt lat="45.80337" lon="6.1465">
        <ele>640.375488</ele>
        <time>2011-01-14T16:35:11Z</time>
      </trkpt>
      <trkpt lat="45.80353" lon="6.14655">
        <ele>640.855957</ele>
        <time>2011-01-14T16:35:23Z</time>
      </trkpt>
      <trkpt lat="45.80369" lon="6.14663">
        <ele>642.298096</ele>
        <time>2011-01-14T16:35:35Z</time>
      </trkpt>
      <trkpt lat="45.80375" lon="6.14674">
        <ele>643.259277</ele>
        <time>2011-01-14T16:35:43Z</time>
      </trkpt>
      <trkpt lat="45.80376" lon="6.14681">
        <ele>643.73999</ele>
        <time>2011-01-14T16:35:47Z</time>
      </trkpt>
      <trkpt lat="45.80369" lon="6.14696">
        <ele>644.701172</ele>
        <time>2011-01-14T16:35:57Z</time>
      </trkpt>
      <trkpt lat="45.80367" lon="6.14709">
        <ele>645.181885</ele>
        <time>2011-01-14T16:36:04Z</time>
      </trkpt>
      <trkpt lat="45.80363" lon="6.14728">
        <ele>645.662598</ele>
        <time>2011-01-14T16:36:15Z</time>
      </trkpt>
      <trkpt lat="45.80361" lon="6.14739">
        <ele>646.624023</ele>
        <time>2011-01-14T16:36:23Z</time>
      </trkpt>
      <trkpt lat="45.80358" lon="6.14751">
        <ele>647.585205</ele>
        <time>2011-01-14T16:36:31Z</time>
      </trkpt>
      <trkpt lat="45.80356" lon="6.14763">
        <ele>648.546387</ele>
        <time>2011-01-14T16:36:39Z</time>
      </trkpt>
      <trkpt lat="45.80356" lon="6.14773">
        <ele>649.0271</ele>
        <time>2011-01-14T16:36:48Z</time>
      </trkpt>
      <trkpt lat="45.80356" lon="6.14782">
        <ele>650.469238</ele>
        <time>2011-01-14T16:36:55Z</time>
      </trkpt>
      <trkpt lat="45.80359" lon="6.14792">
        <ele>651.911133</ele>
        <time>2011-01-14T16:37:04Z</time>
      </trkpt>
      <trkpt lat="45.80361" lon="6.14799">
        <ele>653.353271</ele>
        <time>2011-01-14T16:37:08Z</time>
      </trkpt>
      <trkpt lat="45.8036" lon="6.14813">
        <ele>654.795166</ele>
        <time>2011-01-14T16:37:17Z</time>
      </trkpt>
      <trkpt lat="45.8036" lon="6.14815">
        <ele>656.237061</ele>
        <time>2011-01-14T16:37:19Z</time>
      </trkpt>
      <trkpt lat="45.8036" lon="6.14817">
        <ele>656.237061</ele>
        <time>2011-01-14T16:37:20Z</time>
      </trkpt>
      <trkpt lat="45.80356" lon="6.1483">
        <ele>657.679199</ele>
        <time>2011-01-14T16:37:28Z</time>
      </trkpt>
      <trkpt lat="45.80357" lon="6.1484">
        <ele>658.640381</ele>
        <time>2011-01-14T16:37:35Z</time>
      </trkpt>
      <trkpt lat="45.80358" lon="6.1485">
        <ele>659.601807</ele>
        <time>2011-01-14T16:37:43Z</time>
      </trkpt>
      <trkpt lat="45.80358" lon="6.14856">
        <ele>660.562988</ele>
        <time>2011-01-14T16:37:46Z</time>
      </trkpt>
      <trkpt lat="45.80363" lon="6.14865">
        <ele>661.524414</ele>
        <time>2011-01-14T16:37:54Z</time>
      </trkpt>
      <trkpt lat="45.80369" lon="6.14866">
        <ele>662.485596</ele>
        <time>2011-01-14T16:38:01Z</time>
      </trkpt>
      <trkpt lat="45.80375" lon="6.14871">
        <ele>663.92749</ele>
        <time>2011-01-14T16:38:08Z</time>
      </trkpt>
      <trkpt lat="45.80381" lon="6.14879">
        <ele>664.408203</ele>
        <time>2011-01-14T16:38:17Z</time>
      </trkpt>
      <trkpt lat="45.80381" lon="6.14882">
        <ele>665.369629</ele>
        <time>2011-01-14T16:38:19Z</time>
      </trkpt>
      <trkpt lat="45.80387" lon="6.14896">
        <ele>667.292236</ele>
        <time>2011-01-14T16:38:28Z</time>
      </trkpt>
      <trkpt lat="45.80386" lon="6.14908">
        <ele>668.734375</ele>
        <time>2011-01-14T16:38:36Z</time>
      </trkpt>
      <trkpt lat="45.80386" lon="6.1492">
        <ele>670.17627</ele>
        <time>2011-01-14T16:38:43Z</time>
      </trkpt>
      <trkpt lat="45.80389" lon="6.14934">
        <ele>671.618164</ele>
        <time>2011-01-14T16:38:52Z</time>
      </trkpt>
      <trkpt lat="45.804" lon="6.14935">
        <ele>672.57959</ele>
        <time>2011-01-14T16:39:01Z</time>
      </trkpt>
      <trkpt lat="45.80407" lon="6.14939">
        <ele>672.57959</ele>
        <time>2011-01-14T16:39:07Z</time>
      </trkpt>
      <trkpt lat="45.80413" lon="6.14943">
        <ele>672.57959</ele>
        <time>2011-01-14T16:39:13Z</time>
      </trkpt>
      <trkpt lat="45.80421" lon="6.14946">
        <ele>673.541016</ele>
        <time>2011-01-14T16:39:21Z</time>
      </trkpt>
      <trkpt lat="45.80422" lon="6.14946">
        <ele>673.541016</ele>
        <time>2011-01-14T16:39:22Z</time>
      </trkpt>
      <trkpt lat="45.80435" lon="6.14947">
        <ele>674.502197</ele>
        <time>2011-01-14T16:39:31Z</time>
      </trkpt>
      <trkpt lat="45.80436" lon="6.14948">
        <ele>674.98291</ele>
        <time>2011-01-14T16:39:32Z</time>
      </trkpt>
      <trkpt lat="45.80443" lon="6.1495">
        <ele>675.944092</ele>
        <time>2011-01-14T16:39:38Z</time>
      </trkpt>
      <trkpt lat="45.80455" lon="6.14945">
        <ele>675.944092</ele>
        <time>2011-01-14T16:39:48Z</time>
      </trkpt>
      <trkpt lat="45.80464" lon="6.1494">
        <ele>677.38623</ele>
        <time>2011-01-14T16:39:58Z</time>
      </trkpt>
      <trkpt lat="45.80474" lon="6.14934">
        <ele>678.828125</ele>
        <time>2011-01-14T16:40:08Z</time>
      </trkpt>
      <trkpt lat="45.80483" lon="6.14931">
        <ele>680.750732</ele>
        <time>2011-01-14T16:40:17Z</time>
      </trkpt>
      <trkpt lat="45.80493" lon="6.14932">
        <ele>683.153809</ele>
        <time>2011-01-14T16:40:27Z</time>
      </trkpt>
      <trkpt lat="45.80495" lon="6.14939">
        <ele>683.634521</ele>
        <time>2011-01-14T16:40:35Z</time>
      </trkpt>
      <trkpt lat="45.80486" lon="6.14955">
        <ele>685.557373</ele>
        <time>2011-01-14T16:40:49Z</time>
      </trkpt>
      <trkpt lat="45.8048" lon="6.14973">
        <ele>686.999268</ele>
        <time>2011-01-14T16:41:01Z</time>
      </trkpt>
      <trkpt lat="45.80476" lon="6.14981">
        <ele>687.47998</ele>
        <time>2011-01-14T16:41:07Z</time>
      </trkpt>
      <trkpt lat="45.80472" lon="6.15007">
        <ele>688.922119</ele>
        <time>2011-01-14T16:41:22Z</time>
      </trkpt>
      <trkpt lat="45.80468" lon="6.15037">
        <ele>690.844482</ele>
        <time>2011-01-14T16:41:39Z</time>
      </trkpt>
      <trkpt lat="45.80467" lon="6.15062">
        <ele>693.728516</ele>
        <time>2011-01-14T16:41:53Z</time>
      </trkpt>
      <trkpt lat="45.80467" lon="6.15087">
        <ele>695.651123</ele>
        <time>2011-01-14T16:42:07Z</time>
      </trkpt>
      <trkpt lat="45.80466" lon="6.15113">
        <ele>698.534912</ele>
        <time>2011-01-14T16:42:22Z</time>
      </trkpt>
      <trkpt lat="45.80465" lon="6.15138">
        <ele>700.458008</ele>
        <time>2011-01-14T16:42:36Z</time>
      </trkpt>
      <trkpt lat="45.80466" lon="6.15161">
        <ele>702.380371</ele>
        <time>2011-01-14T16:42:50Z</time>
      </trkpt>
      <trkpt lat="45.80469" lon="6.15184">
        <ele>704.303223</ele>
        <time>2011-01-14T16:43:03Z</time>
      </trkpt>
      <trkpt lat="45.8047" lon="6.1521">
        <ele>706.225586</ele>
        <time>2011-01-14T16:43:18Z</time>
      </trkpt>
      <trkpt lat="45.80471" lon="6.15237">
        <ele>708.628906</ele>
        <time>2011-01-14T16:43:33Z</time>
      </trkpt>
      <trkpt lat="45.80467" lon="6.15264">
        <ele>710.070801</ele>
        <time>2011-01-14T16:43:48Z</time>
      </trkpt>
      <trkpt lat="45.80459" lon="6.1528">
        <ele>712.474121</ele>
        <time>2011-01-14T16:43:59Z</time>
      </trkpt>
      <trkpt lat="45.80448" lon="6.15304">
        <ele>714.396729</ele>
        <time>2011-01-14T16:44:15Z</time>
      </trkpt>
      <trkpt lat="45.80438" lon="6.15323">
        <ele>716.31958</ele>
        <time>2011-01-14T16:44:28Z</time>
      </trkpt>
      <trkpt lat="45.80439" lon="6.15335">
        <ele>717.281006</ele>
        <time>2011-01-14T16:44:38Z</time>
      </trkpt>
      <trkpt lat="45.80442" lon="6.1534">
        <ele>716.31958</ele>
        <time>2011-01-14T16:44:43Z</time>
      </trkpt>
      <trkpt lat="45.80458" lon="6.1535">
        <ele>717.281006</ele>
        <time>2011-01-14T16:44:58Z</time>
      </trkpt>
      <trkpt lat="45.80471" lon="6.15357">
        <ele>717.281006</ele>
        <time>2011-01-14T16:45:11Z</time>
      </trkpt>
      <trkpt lat="45.80485" lon="6.15365">
        <ele>718.242188</ele>
        <time>2011-01-14T16:45:24Z</time>
      </trkpt>
      <trkpt lat="45.80497" lon="6.15371">
        <ele>718.242188</ele>
        <time>2011-01-14T16:45:35Z</time>
      </trkpt>
      <trkpt lat="45.80512" lon="6.15379">
        <ele>719.203613</ele>
        <time>2011-01-14T16:45:47Z</time>
      </trkpt>
      <trkpt lat="45.80528" lon="6.15386">
        <ele>719.684326</ele>
        <time>2011-01-14T16:46:00Z</time>
      </trkpt>
      <trkpt lat="45.80544" lon="6.15392">
        <ele>720.164795</ele>
        <time>2011-01-14T16:46:12Z</time>
      </trkpt>
      <trkpt lat="45.80559" lon="6.15399">
        <ele>720.164795</ele>
        <time>2011-01-14T16:46:24Z</time>
      </trkpt>
      <trkpt lat="45.80581" lon="6.15407">
        <ele>720.645508</ele>
        <time>2011-01-14T16:46:40Z</time>
      </trkpt>
      <trkpt lat="45.80603" lon="6.15414">
        <ele>720.645508</ele>
        <time>2011-01-14T16:46:56Z</time>
      </trkpt>
      <trkpt lat="45.80623" lon="6.15422">
        <ele>720.645508</ele>
        <time>2011-01-14T16:47:11Z</time>
      </trkpt>
      <trkpt lat="45.80643" lon="6.15429">
        <ele>721.606689</ele>
        <time>2011-01-14T16:47:26Z</time>
      </trkpt>
      <trkpt lat="45.80663" lon="6.15437">
        <ele>721.606689</ele>
        <time>2011-01-14T16:47:41Z</time>
      </trkpt>
      <trkpt lat="45.80685" lon="6.15438">
        <ele>721.606689</ele>
        <time>2011-01-14T16:47:56Z</time>
      </trkpt>
      <trkpt lat="45.80705" lon="6.15432">
        <ele>720.645508</ele>
        <time>2011-01-14T16:48:10Z</time>
      </trkpt>
      <trkpt lat="45.80721" lon="6.15435">
        <ele>722.087402</ele>
        <time>2011-01-14T16:48:22Z</time>
      </trkpt>
      <trkpt lat="45.80732" lon="6.15438">
        <ele>722.568115</ele>
        <time>2011-01-14T16:48:31Z</time>
      </trkpt>
      <trkpt lat="45.80746" lon="6.15441">
        <ele>724.01001</ele>
        <time>2011-01-14T16:48:42Z</time>
      </trkpt>
      <trkpt lat="45.80758" lon="6.1545">
        <ele>724.01001</ele>
        <time>2011-01-14T16:48:52Z</time>
      </trkpt>
      <trkpt lat="45.80768" lon="6.15462">
        <ele>724.490723</ele>
        <time>2011-01-14T16:49:01Z</time>
      </trkpt>
      <trkpt lat="45.80785" lon="6.15483">
        <ele>725.451904</ele>
        <time>2011-01-14T16:49:15Z</time>
      </trkpt>
      <trkpt lat="45.80803" lon="6.15503">
        <ele>726.894043</ele>
        <time>2011-01-14T16:49:30Z</time>
      </trkpt>
      <trkpt lat="45.80822" lon="6.15521">
        <ele>727.855225</ele>
        <time>2011-01-14T16:49:46Z</time>
      </trkpt>
      <trkpt lat="45.80842" lon="6.15542">
        <ele>730.258545</ele>
        <time>2011-01-14T16:50:03Z</time>
      </trkpt>
      <trkpt lat="45.80855" lon="6.15567">
        <ele>731.700439</ele>
        <time>2011-01-14T16:50:18Z</time>
      </trkpt>
      <trkpt lat="45.80865" lon="6.15593">
        <ele>732.181396</ele>
        <time>2011-01-14T16:50:33Z</time>
      </trkpt>
      <trkpt lat="45.80872" lon="6.1561">
        <ele>732.181396</ele>
        <time>2011-01-14T16:50:43Z</time>
      </trkpt>
      <trkpt lat="45.8088" lon="6.15633">
        <ele>733.623291</ele>
        <time>2011-01-14T16:50:55Z</time>
      </trkpt>
      <trkpt lat="45.80886" lon="6.15652">
        <ele>734.104004</ele>
        <time>2011-01-14T16:51:06Z</time>
      </trkpt>
      <trkpt lat="45.80891" lon="6.15669">
        <ele>735.06543</ele>
        <time>2011-01-14T16:51:16Z</time>
      </trkpt>
      <trkpt lat="45.80898" lon="6.15689">
        <ele>737.468506</ele>
        <time>2011-01-14T16:51:27Z</time>
      </trkpt>
      <trkpt lat="45.80909" lon="6.1571">
        <ele>738.429932</ele>
        <time>2011-01-14T16:51:40Z</time>
      </trkpt>
      <trkpt lat="45.8092" lon="6.15723">
        <ele>738.910645</ele>
        <time>2011-01-14T16:51:51Z</time>
      </trkpt>
      <trkpt lat="45.80926" lon="6.15729">
        <ele>739.871826</ele>
        <time>2011-01-14T16:52:00Z</time>
      </trkpt>
      <trkpt lat="45.80945" lon="6.15735">
        <ele>739.391113</ele>
        <time>2011-01-14T16:53:21Z</time>
      </trkpt>
      <trkpt lat="45.80964" lon="6.1574">
        <ele>737.949219</ele>
        <time>2011-01-14T16:53:36Z</time>
      </trkpt>
      <trkpt lat="45.80981" lon="6.15747">
        <ele>738.429932</ele>
        <time>2011-01-14T16:53:50Z</time>
      </trkpt>
      <trkpt lat="45.80996" lon="6.15752">
        <ele>739.391113</ele>
        <time>2011-01-14T16:54:02Z</time>
      </trkpt>
      <trkpt lat="45.8101" lon="6.15758">
        <ele>740.352539</ele>
        <time>2011-01-14T16:54:13Z</time>
      </trkpt>
      <trkpt lat="45.81022" lon="6.15769">
        <ele>740.352539</ele>
        <time>2011-01-14T16:54:24Z</time>
      </trkpt>
      <trkpt lat="45.81026" lon="6.15786">
        <ele>740.833008</ele>
        <time>2011-01-14T16:54:34Z</time>
      </trkpt>
      <trkpt lat="45.81026" lon="6.15796">
        <ele>740.833008</ele>
        <time>2011-01-14T16:54:43Z</time>
      </trkpt>
      <trkpt lat="45.81026" lon="6.15807">
        <ele>741.313721</ele>
        <time>2011-01-14T16:54:50Z</time>
      </trkpt>
      <trkpt lat="45.8103" lon="6.15834">
        <ele>741.794434</ele>
        <time>2011-01-14T16:55:04Z</time>
      </trkpt>
      <trkpt lat="45.81034" lon="6.15863">
        <ele>741.794434</ele>
        <time>2011-01-14T16:55:19Z</time>
      </trkpt>
      <trkpt lat="45.81038" lon="6.15894">
        <ele>741.313721</ele>
        <time>2011-01-14T16:55:35Z</time>
      </trkpt>
      <trkpt lat="45.81042" lon="6.15917">
        <ele>741.313721</ele>
        <time>2011-01-14T16:55:47Z</time>
      </trkpt>
      <trkpt lat="45.81046" lon="6.15944">
        <ele>740.352539</ele>
        <time>2011-01-14T16:56:01Z</time>
      </trkpt>
      <trkpt lat="45.8105" lon="6.15945">
        <ele>739.871826</ele>
        <time>2011-01-14T16:56:05Z</time>
      </trkpt>
      <trkpt lat="45.81068" lon="6.15936">
        <ele>740.352539</ele>
        <time>2011-01-14T16:56:19Z</time>
      </trkpt>
      <trkpt lat="45.81085" lon="6.15932">
        <ele>741.794434</ele>
        <time>2011-01-14T16:56:32Z</time>
      </trkpt>
      <trkpt lat="45.81104" lon="6.15929">
        <ele>742.275146</ele>
        <time>2011-01-14T16:56:46Z</time>
      </trkpt>
      <trkpt lat="45.81118" lon="6.15918">
        <ele>743.717041</ele>
        <time>2011-01-14T16:56:58Z</time>
      </trkpt>
      <trkpt lat="45.81135" lon="6.15904">
        <ele>744.197754</ele>
        <time>2011-01-14T16:57:12Z</time>
      </trkpt>
      <trkpt lat="45.81154" lon="6.15897">
        <ele>744.197754</ele>
        <time>2011-01-14T16:57:26Z</time>
      </trkpt>
      <trkpt lat="45.81168" lon="6.15895">
        <ele>745.158936</ele>
        <time>2011-01-14T16:57:36Z</time>
      </trkpt>
      <trkpt lat="45.81188" lon="6.15895">
        <ele>745.158936</ele>
        <time>2011-01-14T16:57:50Z</time>
      </trkpt>
      <trkpt lat="45.8121" lon="6.15901">
        <ele>745.639648</ele>
        <time>2011-01-14T16:58:06Z</time>
      </trkpt>
      <trkpt lat="45.81225" lon="6.15906">
        <ele>745.158936</ele>
        <time>2011-01-14T16:58:18Z</time>
      </trkpt>
      <trkpt lat="45.81239" lon="6.15904">
        <ele>744.678223</ele>
        <time>2011-01-14T16:58:29Z</time>
      </trkpt>
      <trkpt lat="45.8126" lon="6.15908">
        <ele>742.755859</ele>
        <time>2011-01-14T16:58:44Z</time>
      </trkpt>
      <trkpt lat="45.81274" lon="6.15911">
        <ele>741.794434</ele>
        <time>2011-01-14T16:58:54Z</time>
      </trkpt>
      <trkpt lat="45.81287" lon="6.15922">
        <ele>740.352539</ele>
        <time>2011-01-14T16:59:05Z</time>
      </trkpt>
      <trkpt lat="45.813" lon="6.15928">
        <ele>739.391113</ele>
        <time>2011-01-14T16:59:15Z</time>
      </trkpt>
      <trkpt lat="45.81309" lon="6.1593">
        <ele>738.910645</ele>
        <time>2011-01-14T16:59:23Z</time>
      </trkpt>
      <trkpt lat="45.81317" lon="6.15933">
        <ele>738.429932</ele>
        <time>2011-01-14T16:59:30Z</time>
      </trkpt>
      <trkpt lat="45.81331" lon="6.15936">
        <ele>737.949219</ele>
        <time>2011-01-14T16:59:40Z</time>
      </trkpt>
      <trkpt lat="45.81342" lon="6.15941">
        <ele>736.987793</ele>
        <time>2011-01-14T16:59:50Z</time>
      </trkpt>
      <trkpt lat="45.81352" lon="6.15944">
        <ele>736.026611</ele>
        <time>2011-01-14T16:59:59Z</time>
      </trkpt>
      <trkpt lat="45.81359" lon="6.15948">
        <ele>734.584717</ele>
        <time>2011-01-14T17:00:07Z</time>
      </trkpt>
      <trkpt lat="45.81363" lon="6.15951">
        <ele>734.584717</ele>
        <time>2011-01-14T17:00:13Z</time>
      </trkpt>
      <trkpt lat="45.81374" lon="6.15955">
        <ele>732.662109</ele>
        <time>2011-01-14T17:00:22Z</time>
      </trkpt>
      <trkpt lat="45.81383" lon="6.15957">
        <ele>731.700439</ele>
        <time>2011-01-14T17:00:30Z</time>
      </trkpt>
      <trkpt lat="45.8139" lon="6.1596">
        <ele>730.258545</ele>
        <time>2011-01-14T17:00:37Z</time>
      </trkpt>
      <trkpt lat="45.81402" lon="6.15963">
        <ele>728.335938</ele>
        <time>2011-01-14T17:00:47Z</time>
      </trkpt>
      <trkpt lat="45.81412" lon="6.15966">
        <ele>726.894043</ele>
        <time>2011-01-14T17:00:55Z</time>
      </trkpt>
      <trkpt lat="45.81429" lon="6.15973">
        <ele>725.451904</ele>
        <time>2011-01-14T17:01:05Z</time>
      </trkpt>
      <trkpt lat="45.81439" lon="6.15978">
        <ele>723.529541</ele>
        <time>2011-01-14T17:01:13Z</time>
      </trkpt>
      <trkpt lat="45.81446" lon="6.15983">
        <ele>722.568115</ele>
        <time>2011-01-14T17:01:19Z</time>
      </trkpt>
      <trkpt lat="45.81448" lon="6.15985">
        <ele>722.568115</ele>
        <time>2011-01-14T17:01:21Z</time>
      </trkpt>
      <trkpt lat="45.81456" lon="6.15999">
        <ele>721.126221</ele>
        <time>2011-01-14T17:01:32Z</time>
      </trkpt>
      <trkpt lat="45.81461" lon="6.1601">
        <ele>718.242188</ele>
        <time>2011-01-14T17:01:41Z</time>
      </trkpt>
      <trkpt lat="45.81462" lon="6.16011">
        <ele>718.242188</ele>
        <time>2011-01-14T17:01:42Z</time>
      </trkpt>
      <trkpt lat="45.8147" lon="6.16027">
        <ele>713.916016</ele>
        <time>2011-01-14T17:01:52Z</time>
      </trkpt>
      <trkpt lat="45.81476" lon="6.16038">
        <ele>711.032227</ele>
        <time>2011-01-14T17:02:00Z</time>
      </trkpt>
      <trkpt lat="45.81481" lon="6.16046">
        <ele>710.551514</ele>
        <time>2011-01-14T17:02:06Z</time>
      </trkpt>
      <trkpt lat="45.81483" lon="6.1605">
        <ele>709.109619</ele>
        <time>2011-01-14T17:02:09Z</time>
      </trkpt>
      <trkpt lat="45.81486" lon="6.16057">
        <ele>707.187012</ele>
        <time>2011-01-14T17:02:16Z</time>
      </trkpt>
      <trkpt lat="45.81489" lon="6.16059">
        <ele>705.745117</ele>
        <time>2011-01-14T17:02:19Z</time>
      </trkpt>
      <trkpt lat="45.81496" lon="6.16064">
        <ele>705.264404</ele>
        <time>2011-01-14T17:02:25Z</time>
      </trkpt>
      <trkpt lat="45.81509" lon="6.16064">
        <ele>704.783691</ele>
        <time>2011-01-14T17:02:34Z</time>
      </trkpt>
      <trkpt lat="45.81512" lon="6.16062">
        <ele>704.303223</ele>
        <time>2011-01-14T17:02:37Z</time>
      </trkpt>
      <trkpt lat="45.81516" lon="6.16059">
        <ele>703.341797</ele>
        <time>2011-01-14T17:02:41Z</time>
      </trkpt>
      <trkpt lat="45.81529" lon="6.16054">
        <ele>701.419189</ele>
        <time>2011-01-14T17:02:53Z</time>
      </trkpt>
      <trkpt lat="45.81534" lon="6.1605">
        <ele>700.938477</ele>
        <time>2011-01-14T17:03:01Z</time>
      </trkpt>
      <trkpt lat="45.81544" lon="6.16047">
        <ele>700.458008</ele>
        <time>2011-01-14T17:03:09Z</time>
      </trkpt>
      <trkpt lat="45.81555" lon="6.16044">
        <ele>698.534912</ele>
        <time>2011-01-14T17:03:19Z</time>
      </trkpt>
      <trkpt lat="45.81563" lon="6.16042">
        <ele>698.054443</ele>
        <time>2011-01-14T17:03:25Z</time>
      </trkpt>
      <trkpt lat="45.81574" lon="6.16042">
        <ele>697.093018</ele>
        <time>2011-01-14T17:03:35Z</time>
      </trkpt>
      <trkpt lat="45.81588" lon="6.16044">
        <ele>695.651123</ele>
        <time>2011-01-14T17:03:48Z</time>
      </trkpt>
      <trkpt lat="45.81598" lon="6.16047">
        <ele>693.247803</ele>
        <time>2011-01-14T17:03:57Z</time>
      </trkpt>
      <trkpt lat="45.81605" lon="6.16047">
        <ele>692.767334</ele>
        <time>2011-01-14T17:04:08Z</time>
      </trkpt>
      <trkpt lat="45.81606" lon="6.16047">
        <ele>693.247803</ele>
        <time>2011-01-14T17:04:18Z</time>
      </trkpt>
      <trkpt lat="45.81608" lon="6.16048">
        <ele>692.767334</ele>
        <time>2011-01-14T17:04:30Z</time>
      </trkpt>
      <trkpt lat="45.81609" lon="6.16046">
        <ele>693.247803</ele>
        <time>2011-01-14T17:04:50Z</time>
      </trkpt>
      <trkpt lat="45.8161" lon="6.16048">
        <ele>693.728516</ele>
        <time>2011-01-14T17:05:02Z</time>
      </trkpt>
      <trkpt lat="45.81613" lon="6.16048">
        <ele>692.286621</ele>
        <time>2011-01-14T17:05:10Z</time>
      </trkpt>
      <trkpt lat="45.81621" lon="6.16045">
        <ele>690.844482</ele>
        <time>2011-01-14T17:05:21Z</time>
      </trkpt>
      <trkpt lat="45.81624" lon="6.16045">
        <ele>689.883301</ele>
        <time>2011-01-14T17:05:30Z</time>
      </trkpt>
      <trkpt lat="45.81626" lon="6.16044">
        <ele>688.922119</ele>
        <time>2011-01-14T17:05:32Z</time>
      </trkpt>
      <trkpt lat="45.81628" lon="6.16042">
        <ele>687.960693</ele>
        <time>2011-01-14T17:05:35Z</time>
      </trkpt>
      <trkpt lat="45.81636" lon="6.16035">
        <ele>686.038086</ele>
        <time>2011-01-14T17:05:45Z</time>
      </trkpt>
      <trkpt lat="45.81644" lon="6.16032">
        <ele>684.596191</ele>
        <time>2011-01-14T17:05:53Z</time>
      </trkpt>
      <trkpt lat="45.81655" lon="6.16032">
        <ele>682.192627</ele>
        <time>2011-01-14T17:06:03Z</time>
      </trkpt>
      <trkpt lat="45.81664" lon="6.16029">
        <ele>680.27002</ele>
        <time>2011-01-14T17:06:12Z</time>
      </trkpt>
      <trkpt lat="45.81671" lon="6.16026">
        <ele>678.347412</ele>
        <time>2011-01-14T17:06:18Z</time>
      </trkpt>
      <trkpt lat="45.81681" lon="6.16024">
        <ele>676.905518</ele>
        <time>2011-01-14T17:06:27Z</time>
      </trkpt>
      <trkpt lat="45.81691" lon="6.16022">
        <ele>674.021484</ele>
        <time>2011-01-14T17:06:38Z</time>
      </trkpt>
      <trkpt lat="45.81693" lon="6.16019">
        <ele>673.541016</ele>
        <time>2011-01-14T17:06:42Z</time>
      </trkpt>
      <trkpt lat="45.81711" lon="6.16012">
        <ele>671.137695</ele>
        <time>2011-01-14T17:06:55Z</time>
      </trkpt>
      <trkpt lat="45.81722" lon="6.16006">
        <ele>670.17627</ele>
        <time>2011-01-14T17:07:06Z</time>
      </trkpt>
      <trkpt lat="45.81731" lon="6.15997">
        <ele>667.292236</ele>
        <time>2011-01-14T17:07:16Z</time>
      </trkpt>
      <trkpt lat="45.81737" lon="6.15995">
        <ele>666.330811</ele>
        <time>2011-01-14T17:07:21Z</time>
      </trkpt>
      <trkpt lat="45.81752" lon="6.15998">
        <ele>665.369629</ele>
        <time>2011-01-14T17:07:32Z</time>
      </trkpt>
      <trkpt lat="45.81757" lon="6.16">
        <ele>664.408203</ele>
        <time>2011-01-14T17:07:39Z</time>
      </trkpt>
      <trkpt lat="45.81764" lon="6.16005">
        <ele>663.447021</ele>
        <time>2011-01-14T17:07:47Z</time>
      </trkpt>
      <trkpt lat="45.8177" lon="6.16009">
        <ele>662.485596</ele>
        <time>2011-01-14T17:07:55Z</time>
      </trkpt>
      <trkpt lat="45.81775" lon="6.16011">
        <ele>662.005127</ele>
        <time>2011-01-14T17:08:02Z</time>
      </trkpt>
      <trkpt lat="45.81778" lon="6.16016">
        <ele>661.043701</ele>
        <time>2011-01-14T17:08:09Z</time>
      </trkpt>
      <trkpt lat="45.81782" lon="6.16025">
        <ele>660.082275</ele>
        <time>2011-01-14T17:08:18Z</time>
      </trkpt>
      <trkpt lat="45.81785" lon="6.16033">
        <ele>660.082275</ele>
        <time>2011-01-14T17:08:26Z</time>
      </trkpt>
      <trkpt lat="45.81789" lon="6.16037">
        <ele>659.601807</ele>
        <time>2011-01-14T17:08:32Z</time>
      </trkpt>
      <trkpt lat="45.81794" lon="6.16046">
        <ele>658.159912</ele>
        <time>2011-01-14T17:08:40Z</time>
      </trkpt>
      <trkpt lat="45.81795" lon="6.16047">
        <ele>658.159912</ele>
        <time>2011-01-14T17:08:41Z</time>
      </trkpt>
      <trkpt lat="45.81801" lon="6.16055">
        <ele>657.198486</ele>
        <time>2011-01-14T17:08:49Z</time>
      </trkpt>
      <trkpt lat="45.81805" lon="6.16063">
        <ele>655.756592</ele>
        <time>2011-01-14T17:08:54Z</time>
      </trkpt>
      <trkpt lat="45.81811" lon="6.1608">
        <ele>654.795166</ele>
        <time>2011-01-14T17:09:03Z</time>
      </trkpt>
      <trkpt lat="45.81815" lon="6.16093">
        <ele>653.353271</ele>
        <time>2011-01-14T17:09:11Z</time>
      </trkpt>
      <trkpt lat="45.81826" lon="6.16105">
        <ele>651.911133</ele>
        <time>2011-01-14T17:09:20Z</time>
      </trkpt>
      <trkpt lat="45.81834" lon="6.16113">
        <ele>649.988525</ele>
        <time>2011-01-14T17:09:28Z</time>
      </trkpt>
      <trkpt lat="45.81842" lon="6.1612">
        <ele>648.546387</ele>
        <time>2011-01-14T17:09:38Z</time>
      </trkpt>
      <trkpt lat="45.81843" lon="6.16121">
        <ele>647.585205</ele>
        <time>2011-01-14T17:09:39Z</time>
      </trkpt>
      <trkpt lat="45.81847" lon="6.16129">
        <ele>645.662598</ele>
        <time>2011-01-14T17:09:44Z</time>
      </trkpt>
      <trkpt lat="45.81857" lon="6.16136">
        <ele>644.220703</ele>
        <time>2011-01-14T17:09:53Z</time>
      </trkpt>
      <trkpt lat="45.81863" lon="6.16143">
        <ele>642.298096</ele>
        <time>2011-01-14T17:10:00Z</time>
      </trkpt>
      <trkpt lat="45.81867" lon="6.16153">
        <ele>640.375488</ele>
        <time>2011-01-14T17:10:09Z</time>
      </trkpt>
      <trkpt lat="45.81872" lon="6.16162">
        <ele>637.491455</ele>
        <time>2011-01-14T17:10:17Z</time>
      </trkpt>
      <trkpt lat="45.81878" lon="6.16167">
        <ele>636.049561</ele>
        <time>2011-01-14T17:10:23Z</time>
      </trkpt>
      <trkpt lat="45.8188" lon="6.16171">
        <ele>635.568604</ele>
        <time>2011-01-14T17:10:28Z</time>
      </trkpt>
      <trkpt lat="45.81883" lon="6.16178">
        <ele>635.088135</ele>
        <time>2011-01-14T17:10:32Z</time>
      </trkpt>
      <trkpt lat="45.81888" lon="6.1619">
        <ele>635.088135</ele>
        <time>2011-01-14T17:10:40Z</time>
      </trkpt>
      <trkpt lat="45.8189" lon="6.16197">
        <ele>632.684814</ele>
        <time>2011-01-14T17:10:46Z</time>
      </trkpt>
      <trkpt lat="45.81892" lon="6.16207">
        <ele>630.762207</ele>
        <time>2011-01-14T17:10:54Z</time>
      </trkpt>
      <trkpt lat="45.81892" lon="6.16218">
        <ele>629.800781</ele>
        <time>2011-01-14T17:11:01Z</time>
      </trkpt>
      <trkpt lat="45.81892" lon="6.16238">
        <ele>627.397705</ele>
        <time>2011-01-14T17:11:14Z</time>
      </trkpt>
      <trkpt lat="45.81892" lon="6.16243">
        <ele>626.916992</ele>
        <time>2011-01-14T17:11:24Z</time>
      </trkpt>
      <trkpt lat="45.81893" lon="6.16249">
        <ele>626.436279</ele>
        <time>2011-01-14T17:11:41Z</time>
      </trkpt>
      <trkpt lat="45.81892" lon="6.16254">
        <ele>626.916992</ele>
        <time>2011-01-14T17:11:57Z</time>
      </trkpt>
      <trkpt lat="45.81893" lon="6.16262">
        <ele>625.474854</ele>
        <time>2011-01-14T17:12:03Z</time>
      </trkpt>
      <trkpt lat="45.81889" lon="6.16276">
        <ele>624.513672</ele>
        <time>2011-01-14T17:12:13Z</time>
      </trkpt>
      <trkpt lat="45.81884" lon="6.16287">
        <ele>624.032959</ele>
        <time>2011-01-14T17:12:24Z</time>
      </trkpt>
      <trkpt lat="45.81882" lon="6.16291">
        <ele>624.032959</ele>
        <time>2011-01-14T17:12:28Z</time>
      </trkpt>
      <trkpt lat="45.81874" lon="6.16307">
        <ele>621.629639</ele>
        <time>2011-01-14T17:12:41Z</time>
      </trkpt>
      <trkpt lat="45.8187" lon="6.16316">
        <ele>621.14917</ele>
        <time>2011-01-14T17:12:48Z</time>
      </trkpt>
      <trkpt lat="45.81868" lon="6.16338">
        <ele>619.226318</ele>
        <time>2011-01-14T17:13:00Z</time>
      </trkpt>
      <trkpt lat="45.81869" lon="6.16346">
        <ele>618.745605</ele>
        <time>2011-01-14T17:13:05Z</time>
      </trkpt>
      <trkpt lat="45.81875" lon="6.16351">
        <ele>617.78418</ele>
        <time>2011-01-14T17:13:11Z</time>
      </trkpt>
      <trkpt lat="45.81875" lon="6.16354">
        <ele>617.303711</ele>
        <time>2011-01-14T17:13:14Z</time>
      </trkpt>
      <trkpt lat="45.81875" lon="6.16362">
        <ele>616.342285</ele>
        <time>2011-01-14T17:13:19Z</time>
      </trkpt>
      <trkpt lat="45.81883" lon="6.16373">
        <ele>612.977783</ele>
        <time>2011-01-14T17:13:30Z</time>
      </trkpt>
      <trkpt lat="45.81885" lon="6.16388">
        <ele>611.055176</ele>
        <time>2011-01-14T17:13:39Z</time>
      </trkpt>
      <trkpt lat="45.8189" lon="6.16407">
        <ele>608.651855</ele>
        <time>2011-01-14T17:13:52Z</time>
      </trkpt>
      <trkpt lat="45.81894" lon="6.16422">
        <ele>607.209961</ele>
        <time>2011-01-14T17:14:02Z</time>
      </trkpt>
      <trkpt lat="45.81899" lon="6.16442">
        <ele>603.364502</ele>
        <time>2011-01-14T17:14:14Z</time>
      </trkpt>
      <trkpt lat="45.81905" lon="6.16466">
        <ele>601.922607</ele>
        <time>2011-01-14T17:14:28Z</time>
      </trkpt>
      <trkpt lat="45.81909" lon="6.16487">
        <ele>601.441895</ele>
        <time>2011-01-14T17:14:41Z</time>
      </trkpt>
      <trkpt lat="45.81915" lon="6.16503">
        <ele>599.519287</ele>
        <time>2011-01-14T17:14:53Z</time>
      </trkpt>
      <trkpt lat="45.81916" lon="6.16507">
        <ele>599.519287</ele>
        <time>2011-01-14T17:15:01Z</time>
      </trkpt>
      <trkpt lat="45.81915" lon="6.16509">
        <ele>599.519287</ele>
        <time>2011-01-14T17:15:22Z</time>
      </trkpt>
      <trkpt lat="45.81912" lon="6.16513">
        <ele>599.519287</ele>
        <time>2011-01-14T17:15:29Z</time>
      </trkpt>
      <trkpt lat="45.81896" lon="6.1652">
        <ele>600.480713</ele>
        <time>2011-01-14T17:15:43Z</time>
      </trkpt>
      <trkpt lat="45.81883" lon="6.16525">
        <ele>601.441895</ele>
        <time>2011-01-14T17:15:54Z</time>
      </trkpt>
      <trkpt lat="45.81871" lon="6.1653">
        <ele>601.922607</ele>
        <time>2011-01-14T17:16:04Z</time>
      </trkpt>
      <trkpt lat="45.81859" lon="6.16535">
        <ele>600.961182</ele>
        <time>2011-01-14T17:16:13Z</time>
      </trkpt>
      <trkpt lat="45.81845" lon="6.16541">
        <ele>600.961182</ele>
        <time>2011-01-14T17:16:23Z</time>
      </trkpt>
      <trkpt lat="45.81832" lon="6.16543">
        <ele>600.961182</ele>
        <time>2011-01-14T17:16:32Z</time>
      </trkpt>
      <trkpt lat="45.81817" lon="6.1654">
        <ele>600.961182</ele>
        <time>2011-01-14T17:16:43Z</time>
      </trkpt>
      <trkpt lat="45.81805" lon="6.16536">
        <ele>600.961182</ele>
        <time>2011-01-14T17:16:52Z</time>
      </trkpt>
      <trkpt lat="45.81792" lon="6.16532">
        <ele>599.519287</ele>
        <time>2011-01-14T17:17:02Z</time>
      </trkpt>
      <trkpt lat="45.81783" lon="6.16535">
        <ele>599.519287</ele>
        <time>2011-01-14T17:17:09Z</time>
      </trkpt>
      <trkpt lat="45.8178" lon="6.16539">
        <ele>599.038574</ele>
        <time>2011-01-14T17:17:12Z</time>
      </trkpt>
      <trkpt lat="45.81778" lon="6.16543">
        <ele>598.557861</ele>
        <time>2011-01-14T17:17:15Z</time>
      </trkpt>
      <trkpt lat="45.81777" lon="6.16559">
        <ele>596.635498</ele>
        <time>2011-01-14T17:17:23Z</time>
      </trkpt>
      <trkpt lat="45.81773" lon="6.16574">
        <ele>595.193359</ele>
        <time>2011-01-14T17:17:31Z</time>
      </trkpt>
      <trkpt lat="45.81763" lon="6.16585">
        <ele>594.232178</ele>
        <time>2011-01-14T17:17:41Z</time>
      </trkpt>
      <trkpt lat="45.81761" lon="6.1659">
        <ele>593.270752</ele>
        <time>2011-01-14T17:17:44Z</time>
      </trkpt>
      <trkpt lat="45.81763" lon="6.16601">
        <ele>590.386963</ele>
        <time>2011-01-14T17:17:53Z</time>
      </trkpt>
      <trkpt lat="45.81773" lon="6.16606">
        <ele>587.021973</ele>
        <time>2011-01-14T17:18:02Z</time>
      </trkpt>
      <trkpt lat="45.81795" lon="6.16615">
        <ele>584.618896</ele>
        <time>2011-01-14T17:18:18Z</time>
      </trkpt>
      <trkpt lat="45.81813" lon="6.16622">
        <ele>581.734863</ele>
        <time>2011-01-14T17:18:32Z</time>
      </trkpt>
      <trkpt lat="45.81833" lon="6.16626">
        <ele>578.370361</ele>
        <time>2011-01-14T17:18:46Z</time>
      </trkpt>
      <trkpt lat="45.81851" lon="6.16624">
        <ele>576.447754</ele>
        <time>2011-01-14T17:19:00Z</time>
      </trkpt>
      <trkpt lat="45.81867" lon="6.16623">
        <ele>575.967041</ele>
        <time>2011-01-14T17:19:11Z</time>
      </trkpt>
      <trkpt lat="45.81883" lon="6.16624">
        <ele>575.967041</ele>
        <time>2011-01-14T17:19:22Z</time>
      </trkpt>
      <trkpt lat="45.81895" lon="6.16622">
        <ele>575.967041</ele>
        <time>2011-01-14T17:19:31Z</time>
      </trkpt>
      <trkpt lat="45.81909" lon="6.16621">
        <ele>576.447754</ele>
        <time>2011-01-14T17:19:41Z</time>
      </trkpt>
      <trkpt lat="45.81922" lon="6.16618">
        <ele>575.005859</ele>
        <time>2011-01-14T17:19:50Z</time>
      </trkpt>
      <trkpt lat="45.81934" lon="6.16614">
        <ele>574.044434</ele>
        <time>2011-01-14T17:19:59Z</time>
      </trkpt>
      <trkpt lat="45.81939" lon="6.16613">
        <ele>573.563965</ele>
        <time>2011-01-14T17:20:03Z</time>
      </trkpt>
      <trkpt lat="45.81955" lon="6.16621">
        <ele>571.640869</ele>
        <time>2011-01-14T17:20:15Z</time>
      </trkpt>
      <trkpt lat="45.81963" lon="6.16637">
        <ele>568.75708</ele>
        <time>2011-01-14T17:20:26Z</time>
      </trkpt>
      <trkpt lat="45.81972" lon="6.16656">
        <ele>565.873291</ele>
        <time>2011-01-14T17:20:39Z</time>
      </trkpt>
      <trkpt lat="45.81981" lon="6.16665">
        <ele>563.950439</ele>
        <time>2011-01-14T17:20:48Z</time>
      </trkpt>
      <trkpt lat="45.81991" lon="6.16666">
        <ele>562.028076</ele>
        <time>2011-01-14T17:20:57Z</time>
      </trkpt>
      <trkpt lat="45.81994" lon="6.16666">
        <ele>562.028076</ele>
        <time>2011-01-14T17:20:59Z</time>
      </trkpt>
      <trkpt lat="45.82001" lon="6.16662">
        <ele>560.585938</ele>
        <time>2011-01-14T17:21:04Z</time>
      </trkpt>
      <trkpt lat="45.82011" lon="6.16656">
        <ele>558.66333</ele>
        <time>2011-01-14T17:21:14Z</time>
      </trkpt>
      <trkpt lat="45.82022" lon="6.16648">
        <ele>555.298584</ele>
        <time>2011-01-14T17:21:24Z</time>
      </trkpt>
      <trkpt lat="45.82035" lon="6.1664">
        <ele>552.895264</ele>
        <time>2011-01-14T17:21:35Z</time>
      </trkpt>
      <trkpt lat="45.82041" lon="6.16649">
        <ele>550.492188</ele>
        <time>2011-01-14T17:21:42Z</time>
      </trkpt>
      <trkpt lat="45.82042" lon="6.16668">
        <ele>547.608154</ele>
        <time>2011-01-14T17:21:52Z</time>
      </trkpt>
      <trkpt lat="45.82046" lon="6.16678">
        <ele>545.204834</ele>
        <time>2011-01-14T17:21:59Z</time>
      </trkpt>
      <trkpt lat="45.82057" lon="6.16679">
        <ele>541.84021</ele>
        <time>2011-01-14T17:22:09Z</time>
      </trkpt>
      <trkpt lat="45.82062" lon="6.16674">
        <ele>539.917603</ele>
        <time>2011-01-14T17:22:14Z</time>
      </trkpt>
      <trkpt lat="45.82075" lon="6.1666">
        <ele>537.514282</ele>
        <time>2011-01-14T17:22:27Z</time>
      </trkpt>
      <trkpt lat="45.82087" lon="6.16656">
        <ele>535.110962</ele>
        <time>2011-01-14T17:22:37Z</time>
      </trkpt>
      <trkpt lat="45.82096" lon="6.16654">
        <ele>533.668945</ele>
        <time>2011-01-14T17:22:44Z</time>
      </trkpt>
      <trkpt lat="45.82108" lon="6.16656">
        <ele>529.82373</ele>
        <time>2011-01-14T17:22:55Z</time>
      </trkpt>
      <trkpt lat="45.8212" lon="6.16659">
        <ele>526.459106</ele>
        <time>2011-01-14T17:23:06Z</time>
      </trkpt>
      <trkpt lat="45.8213" lon="6.16661">
        <ele>525.017212</ele>
        <time>2011-01-14T17:23:14Z</time>
      </trkpt>
      <trkpt lat="45.82144" lon="6.16661">
        <ele>522.613892</ele>
        <time>2011-01-14T17:23:25Z</time>
      </trkpt>
      <trkpt lat="45.82158" lon="6.16661">
        <ele>521.171997</ele>
        <time>2011-01-14T17:23:37Z</time>
      </trkpt>
      <trkpt lat="45.82162" lon="6.16662">
        <ele>520.210571</ele>
        <time>2011-01-14T17:23:47Z</time>
      </trkpt>
      <trkpt lat="45.82164" lon="6.16667">
        <ele>520.210571</ele>
        <time>2011-01-14T17:24:03Z</time>
      </trkpt>
      <trkpt lat="45.82166" lon="6.16675">
        <ele>518.768555</ele>
        <time>2011-01-14T17:24:08Z</time>
      </trkpt>
      <trkpt lat="45.82169" lon="6.1669">
        <ele>516.365234</ele>
        <time>2011-01-14T17:24:17Z</time>
      </trkpt>
      <trkpt lat="45.82174" lon="6.16705">
        <ele>513.481445</ele>
        <time>2011-01-14T17:24:27Z</time>
      </trkpt>
      <trkpt lat="45.82183" lon="6.16711">
        <ele>510.116699</ele>
        <time>2011-01-14T17:24:35Z</time>
      </trkpt>
      <trkpt lat="45.82195" lon="6.16716">
        <ele>509.155396</ele>
        <time>2011-01-14T17:24:45Z</time>
      </trkpt>
      <trkpt lat="45.82207" lon="6.16718">
        <ele>508.194092</ele>
        <time>2011-01-14T17:24:54Z</time>
      </trkpt>
      <trkpt lat="45.82216" lon="6.16718">
        <ele>507.232788</ele>
        <time>2011-01-14T17:25:02Z</time>
      </trkpt>
      <trkpt lat="45.8223" lon="6.1672">
        <ele>505.790894</ele>
        <time>2011-01-14T17:25:13Z</time>
      </trkpt>
      <trkpt lat="45.82238" lon="6.16718">
        <ele>504.348877</ele>
        <time>2011-01-14T17:25:21Z</time>
      </trkpt>
      <trkpt lat="45.8225" lon="6.16717">
        <ele>502.906738</ele>
        <time>2011-01-14T17:25:30Z</time>
      </trkpt>
      <trkpt lat="45.82263" lon="6.16716">
        <ele>502.426147</ele>
        <time>2011-01-14T17:25:39Z</time>
      </trkpt>
      <trkpt lat="45.82271" lon="6.16713">
        <ele>501.464844</ele>
        <time>2011-01-14T17:25:46Z</time>
      </trkpt>
      <trkpt lat="45.82281" lon="6.1671">
        <ele>500.022949</ele>
        <time>2011-01-14T17:25:55Z</time>
      </trkpt>
      <trkpt lat="45.8229" lon="6.16702">
        <ele>499.542236</ele>
        <time>2011-01-14T17:26:04Z</time>
      </trkpt>
      <trkpt lat="45.82302" lon="6.16694">
        <ele>498.580933</ele>
        <time>2011-01-14T17:26:12Z</time>
      </trkpt>
      <trkpt lat="45.82318" lon="6.16691">
        <ele>497.138916</ele>
        <time>2011-01-14T17:26:23Z</time>
      </trkpt>
      <trkpt lat="45.8233" lon="6.16691">
        <ele>496.177734</ele>
        <time>2011-01-14T17:26:33Z</time>
      </trkpt>
      <trkpt lat="45.8234" lon="6.16695">
        <ele>495.216187</ele>
        <time>2011-01-14T17:26:40Z</time>
      </trkpt>
      <trkpt lat="45.82346" lon="6.16699">
        <ele>494.735596</ele>
        <time>2011-01-14T17:26:48Z</time>
      </trkpt>
      <trkpt lat="45.82357" lon="6.16703">
        <ele>494.255005</ele>
        <time>2011-01-14T17:26:55Z</time>
      </trkpt>
      <trkpt lat="45.82372" lon="6.16696">
        <ele>493.774292</ele>
        <time>2011-01-14T17:27:04Z</time>
      </trkpt>
      <trkpt lat="45.82385" lon="6.16695">
        <ele>493.293579</ele>
        <time>2011-01-14T17:27:12Z</time>
      </trkpt>
      <trkpt lat="45.82397" lon="6.16695">
        <ele>491.370972</ele>
        <time>2011-01-14T17:27:21Z</time>
      </trkpt>
      <trkpt lat="45.82408" lon="6.16696">
        <ele>490.890381</ele>
        <time>2011-01-14T17:27:29Z</time>
      </trkpt>
      <trkpt lat="45.82421" lon="6.167">
        <ele>489.448364</ele>
        <time>2011-01-14T17:27:38Z</time>
      </trkpt>
      <trkpt lat="45.82441" lon="6.16706">
        <ele>488.967773</ele>
        <time>2011-01-14T17:27:52Z</time>
      </trkpt>
      <trkpt lat="45.82456" lon="6.16712">
        <ele>488.487183</ele>
        <time>2011-01-14T17:28:04Z</time>
      </trkpt>
      <trkpt lat="45.82465" lon="6.16724">
        <ele>487.525635</ele>
        <time>2011-01-14T17:28:15Z</time>
      </trkpt>
      <trkpt lat="45.82484" lon="6.16727">
        <ele>487.525635</ele>
        <time>2011-01-14T17:28:27Z</time>
      </trkpt>
      <trkpt lat="45.82496" lon="6.1674">
        <ele>486.564453</ele>
        <time>2011-01-14T17:28:39Z</time>
      </trkpt>
      <trkpt lat="45.82512" lon="6.16757">
        <ele>485.603027</ele>
        <time>2011-01-14T17:28:53Z</time>
      </trkpt>
      <trkpt lat="45.82524" lon="6.1677">
        <ele>484.641846</ele>
        <time>2011-01-14T17:29:05Z</time>
      </trkpt>
      <trkpt lat="45.82526" lon="6.16772">
        <ele>484.641846</ele>
        <time>2011-01-14T17:29:14Z</time>
      </trkpt>
      <trkpt lat="45.82529" lon="6.16773">
        <ele>484.641846</ele>
        <time>2011-01-14T17:29:41Z</time>
      </trkpt>
      <trkpt lat="45.82532" lon="6.1677">
        <ele>484.161133</ele>
        <time>2011-01-14T17:30:01Z</time>
      </trkpt>
      <trkpt lat="45.82536" lon="6.16769">
        <ele>483.68042</ele>
        <time>2011-01-14T17:30:06Z</time>
      </trkpt>
      <trkpt lat="45.82546" lon="6.16763">
        <ele>481.757813</ele>
        <time>2011-01-14T17:30:15Z</time>
      </trkpt>
      <trkpt lat="45.82555" lon="6.16754">
        <ele>482.238525</ele>
        <time>2011-01-14T17:30:24Z</time>
      </trkpt>
      <trkpt lat="45.82561" lon="6.16739">
        <ele>480.796631</ele>
        <time>2011-01-14T17:30:33Z</time>
      </trkpt>
      <trkpt lat="45.82564" lon="6.16721">
        <ele>481.757813</ele>
        <time>2011-01-14T17:30:43Z</time>
      </trkpt>
      <trkpt lat="45.82566" lon="6.16693">
        <ele>481.277222</ele>
        <time>2011-01-14T17:30:57Z</time>
      </trkpt>
      <trkpt lat="45.82566" lon="6.16685">
        <ele>481.277222</ele>
        <time>2011-01-14T17:31:01Z</time>
      </trkpt>
      <trkpt lat="45.82567" lon="6.1667">
        <ele>480.796631</ele>
        <time>2011-01-14T17:31:13Z</time>
      </trkpt>
      <trkpt lat="45.8257" lon="6.16671">
        <ele>480.315918</ele>
        <time>2011-01-14T17:31:19Z</time>
      </trkpt>
      <trkpt lat="45.82584" lon="6.16669">
        <ele>479.835083</ele>
        <time>2011-01-14T17:31:28Z</time>
      </trkpt>
      <trkpt lat="45.82595" lon="6.16672">
        <ele>478.873901</ele>
        <time>2011-01-14T17:31:38Z</time>
      </trkpt>
      <trkpt lat="45.82599" lon="6.16669">
        <ele>478.873901</ele>
        <time>2011-01-14T17:31:47Z</time>
      </trkpt>
      <trkpt lat="45.826" lon="6.16668">
        <ele>478.873901</ele>
        <time>2011-01-14T17:31:53Z</time>
      </trkpt>
      <trkpt lat="45.82603" lon="6.16663">
        <ele>478.873901</ele>
        <time>2011-01-14T17:31:57Z</time>
      </trkpt>
      <trkpt lat="45.82606" lon="6.1664">
        <ele>479.835083</ele>
        <time>2011-01-14T17:32:09Z</time>
      </trkpt>
      <trkpt lat="45.82608" lon="6.16626">
        <ele>479.835083</ele>
        <time>2011-01-14T17:32:17Z</time>
      </trkpt>
      <trkpt lat="45.82613" lon="6.16603">
        <ele>478.873901</ele>
        <time>2011-01-14T17:32:29Z</time>
      </trkpt>
      <trkpt lat="45.82619" lon="6.16579">
        <ele>478.393188</ele>
        <time>2011-01-14T17:32:41Z</time>
      </trkpt>
      <trkpt lat="45.82626" lon="6.16562">
        <ele>477.912476</ele>
        <time>2011-01-14T17:32:51Z</time>
      </trkpt>
      <trkpt lat="45.8263" lon="6.16538">
        <ele>477.431885</ele>
        <time>2011-01-14T17:33:04Z</time>
      </trkpt>
      <trkpt lat="45.82634" lon="6.16516">
        <ele>477.431885</ele>
        <time>2011-01-14T17:33:15Z</time>
      </trkpt>
      <trkpt lat="45.82638" lon="6.16491">
        <ele>477.431885</ele>
        <time>2011-01-14T17:33:27Z</time>
      </trkpt>
      <trkpt lat="45.82641" lon="6.16471">
        <ele>476.951294</ele>
        <time>2011-01-14T17:33:36Z</time>
      </trkpt>
      <trkpt lat="45.82648" lon="6.16441">
        <ele>477.431885</ele>
        <time>2011-01-14T17:33:51Z</time>
      </trkpt>
      <trkpt lat="45.8265" lon="6.16424">
        <ele>477.431885</ele>
        <time>2011-01-14T17:33:59Z</time>
      </trkpt>
      <trkpt lat="45.82653" lon="6.16397">
        <ele>478.393188</ele>
        <time>2011-01-14T17:34:13Z</time>
      </trkpt>
      <trkpt lat="45.82654" lon="6.16373">
        <ele>478.393188</ele>
        <time>2011-01-14T17:34:25Z</time>
      </trkpt>
      <trkpt lat="45.82658" lon="6.16343">
        <ele>478.873901</ele>
        <time>2011-01-14T17:34:40Z</time>
      </trkpt>
      <trkpt lat="45.82662" lon="6.16318">
        <ele>479.835083</ele>
        <time>2011-01-14T17:34:53Z</time>
      </trkpt>
      <trkpt lat="45.82667" lon="6.16286">
        <ele>481.277222</ele>
        <time>2011-01-14T17:35:08Z</time>
      </trkpt>
      <trkpt lat="45.82672" lon="6.16265">
        <ele>481.757813</ele>
        <time>2011-01-14T17:35:18Z</time>
      </trkpt>
      <trkpt lat="45.82676" lon="6.16242">
        <ele>483.199829</ele>
        <time>2011-01-14T17:35:29Z</time>
      </trkpt>
      <trkpt lat="45.8268" lon="6.1622">
        <ele>483.199829</ele>
        <time>2011-01-14T17:35:39Z</time>
      </trkpt>
      <trkpt lat="45.82685" lon="6.16193">
        <ele>482.719238</ele>
        <time>2011-01-14T17:35:51Z</time>
      </trkpt>
      <trkpt lat="45.8269" lon="6.16163">
        <ele>483.68042</ele>
        <time>2011-01-14T17:36:05Z</time>
      </trkpt>
      <trkpt lat="45.82695" lon="6.16138">
        <ele>483.68042</ele>
        <time>2011-01-14T17:36:17Z</time>
      </trkpt>
      <trkpt lat="45.82697" lon="6.16114">
        <ele>483.68042</ele>
        <time>2011-01-14T17:36:28Z</time>
      </trkpt>
      <trkpt lat="45.82699" lon="6.16093">
        <ele>484.161133</ele>
        <time>2011-01-14T17:36:37Z</time>
      </trkpt>
      <trkpt lat="45.82699" lon="6.16092">
        <ele>483.68042</ele>
        <time>2011-01-14T17:36:38Z</time>
      </trkpt>
      <trkpt lat="45.82703" lon="6.16072">
        <ele>484.641846</ele>
        <time>2011-01-14T17:36:48Z</time>
      </trkpt>
      <trkpt lat="45.82707" lon="6.16053">
        <ele>484.641846</ele>
        <time>2011-01-14T17:36:58Z</time>
      </trkpt>
      <trkpt lat="45.8271" lon="6.1603">
        <ele>485.122437</ele>
        <time>2011-01-14T17:37:09Z</time>
      </trkpt>
      <trkpt lat="45.8271" lon="6.16011">
        <ele>485.603027</ele>
        <time>2011-01-14T17:37:18Z</time>
      </trkpt>
      <trkpt lat="45.82705" lon="6.15993">
        <ele>486.08374</ele>
        <time>2011-01-14T17:37:26Z</time>
      </trkpt>
      <trkpt lat="45.82699" lon="6.15974">
        <ele>486.08374</ele>
        <time>2011-01-14T17:37:36Z</time>
      </trkpt>
      <trkpt lat="45.82695" lon="6.15954">
        <ele>487.525635</ele>
        <time>2011-01-14T17:37:45Z</time>
      </trkpt>
      <trkpt lat="45.82693" lon="6.15937">
        <ele>487.525635</ele>
        <time>2011-01-14T17:37:53Z</time>
      </trkpt>
      <trkpt lat="45.82693" lon="6.1591">
        <ele>487.525635</ele>
        <time>2011-01-14T17:38:05Z</time>
      </trkpt>
      <trkpt lat="45.82694" lon="6.15892">
        <ele>487.045044</ele>
        <time>2011-01-14T17:38:13Z</time>
      </trkpt>
      <trkpt lat="45.82696" lon="6.15871">
        <ele>486.564453</ele>
        <time>2011-01-14T17:38:23Z</time>
      </trkpt>
      <trkpt lat="45.82699" lon="6.15849">
        <ele>485.603027</ele>
        <time>2011-01-14T17:38:33Z</time>
      </trkpt>
      <trkpt lat="45.82702" lon="6.15822">
        <ele>485.603027</ele>
        <time>2011-01-14T17:38:45Z</time>
      </trkpt>
      <trkpt lat="45.82705" lon="6.15798">
        <ele>485.603027</ele>
        <time>2011-01-14T17:38:56Z</time>
      </trkpt>
      <trkpt lat="45.82709" lon="6.15771">
        <ele>486.08374</ele>
        <time>2011-01-14T17:39:08Z</time>
      </trkpt>
      <trkpt lat="45.82712" lon="6.1575">
        <ele>485.603027</ele>
        <time>2011-01-14T17:39:18Z</time>
      </trkpt>
      <trkpt lat="45.82716" lon="6.15727">
        <ele>486.08374</ele>
        <time>2011-01-14T17:39:29Z</time>
      </trkpt>
      <trkpt lat="45.8272" lon="6.15702">
        <ele>486.08374</ele>
        <time>2011-01-14T17:39:41Z</time>
      </trkpt>
      <trkpt lat="45.82724" lon="6.1568">
        <ele>486.08374</ele>
        <time>2011-01-14T17:39:51Z</time>
      </trkpt>
      <trkpt lat="45.82731" lon="6.15658">
        <ele>486.08374</ele>
        <time>2011-01-14T17:40:02Z</time>
      </trkpt>
      <trkpt lat="45.82741" lon="6.15632">
        <ele>485.122437</ele>
        <time>2011-01-14T17:40:15Z</time>
      </trkpt>
      <trkpt lat="45.82749" lon="6.1561">
        <ele>484.641846</ele>
        <time>2011-01-14T17:40:27Z</time>
      </trkpt>
      <trkpt lat="45.82746" lon="6.15593">
        <ele>485.122437</ele>
        <time>2011-01-14T17:40:36Z</time>
      </trkpt>
      <trkpt lat="45.82737" lon="6.15576">
        <ele>485.603027</ele>
        <time>2011-01-14T17:40:46Z</time>
      </trkpt>
      <trkpt lat="45.82729" lon="6.1556">
        <ele>486.564453</ele>
        <time>2011-01-14T17:40:55Z</time>
      </trkpt>
      <trkpt lat="45.82723" lon="6.1555">
        <ele>486.564453</ele>
        <time>2011-01-14T17:41:03Z</time>
      </trkpt>
      <trkpt lat="45.82717" lon="6.15535">
        <ele>486.564453</ele>
        <time>2011-01-14T17:41:12Z</time>
      </trkpt>
      <trkpt lat="45.82706" lon="6.15515">
        <ele>487.045044</ele>
        <time>2011-01-14T17:41:24Z</time>
      </trkpt>
      <trkpt lat="45.82696" lon="6.15494">
        <ele>487.525635</ele>
        <time>2011-01-14T17:41:36Z</time>
      </trkpt>
      <trkpt lat="45.82686" lon="6.15477">
        <ele>487.525635</ele>
        <time>2011-01-14T17:41:46Z</time>
      </trkpt>
      <trkpt lat="45.82676" lon="6.15455">
        <ele>488.00647</ele>
        <time>2011-01-14T17:41:58Z</time>
      </trkpt>
      <trkpt lat="45.82668" lon="6.15439">
        <ele>488.487183</ele>
        <time>2011-01-14T17:42:07Z</time>
      </trkpt>
      <trkpt lat="45.82657" lon="6.15418">
        <ele>488.967773</ele>
        <time>2011-01-14T17:42:19Z</time>
      </trkpt>
      <trkpt lat="45.82647" lon="6.15397">
        <ele>489.448364</ele>
        <time>2011-01-14T17:42:29Z</time>
      </trkpt>
      <trkpt lat="45.82639" lon="6.15383">
        <ele>489.448364</ele>
        <time>2011-01-14T17:42:39Z</time>
      </trkpt>
      <trkpt lat="45.8263" lon="6.15366">
        <ele>489.929077</ele>
        <time>2011-01-14T17:42:49Z</time>
      </trkpt>
      <trkpt lat="45.82624" lon="6.15355">
        <ele>490.40979</ele>
        <time>2011-01-14T17:42:56Z</time>
      </trkpt>
      <trkpt lat="45.8262" lon="6.15345">
        <ele>490.890381</ele>
        <time>2011-01-14T17:43:03Z</time>
      </trkpt>
      <trkpt lat="45.82613" lon="6.15334">
        <ele>490.890381</ele>
        <time>2011-01-14T17:43:10Z</time>
      </trkpt>
      <trkpt lat="45.82608" lon="6.15316">
        <ele>490.890381</ele>
        <time>2011-01-14T17:43:19Z</time>
      </trkpt>
      <trkpt lat="45.82607" lon="6.15303">
        <ele>491.851685</ele>
        <time>2011-01-14T17:43:25Z</time>
      </trkpt>
      <trkpt lat="45.82604" lon="6.15275">
        <ele>491.851685</ele>
        <time>2011-01-14T17:43:38Z</time>
      </trkpt>
      <trkpt lat="45.82601" lon="6.15256">
        <ele>492.332397</ele>
        <time>2011-01-14T17:43:48Z</time>
      </trkpt>
      <trkpt lat="45.82599" lon="6.15236">
        <ele>492.332397</ele>
        <time>2011-01-14T17:43:58Z</time>
      </trkpt>
      <trkpt lat="45.826" lon="6.15227">
        <ele>492.812988</ele>
        <time>2011-01-14T17:44:02Z</time>
      </trkpt>
      <trkpt lat="45.82597" lon="6.15209">
        <ele>492.332397</ele>
        <time>2011-01-14T17:44:11Z</time>
      </trkpt>
      <trkpt lat="45.8259" lon="6.15188">
        <ele>492.812988</ele>
        <time>2011-01-14T17:44:22Z</time>
      </trkpt>
      <trkpt lat="45.82587" lon="6.15175">
        <ele>493.293579</ele>
        <time>2011-01-14T17:44:29Z</time>
      </trkpt>
      <trkpt lat="45.82576" lon="6.15162">
        <ele>493.774292</ele>
        <time>2011-01-14T17:44:37Z</time>
      </trkpt>
      <trkpt lat="45.82568" lon="6.15157">
        <ele>494.255005</ele>
        <time>2011-01-14T17:44:42Z</time>
      </trkpt>
      <trkpt lat="45.82558" lon="6.15142">
        <ele>494.255005</ele>
        <time>2011-01-14T17:44:52Z</time>
      </trkpt>
      <trkpt lat="45.82556" lon="6.15137">
        <ele>493.774292</ele>
        <time>2011-01-14T17:45:02Z</time>
      </trkpt>
    </trkseg>
  </trk>
</gpx>